Observation data for Sterling City on 08/14/2020      Previous  Date       Current Mesonet Observations  Soil Data  Daily Summary Page  Observations in Plain Language
KSC1 140500Z 18008KT 32/13 A2996 RMK A01 T03160126  RH  031%=      5-min Rain = 0
KSC1 140501Z 17008KT 32/13 A2996 RMK A01 T03160126  RH  031%=      5-min Rain = 0
KSC1 140502Z 17008KT 32/13 A2996 RMK A01 T03160127  RH  031%=      5-min Rain = 0
KSC1 140503Z 18008KT 32/13 A2996 RMK A01 T03160127  RH  032%=      5-min Rain = 0
KSC1 140504Z 17007KT 32/13 A2996 RMK A01 T03160127  RH  032%=      5-min Rain = 0
KSC1 140505Z 17007KT 32/13 A2996 RMK A01 T03160127  RH  032%=      5-min Rain = 0
KSC1 140506Z 17009KT 32/13 A2996 RMK A01 T03150127  RH  032%=      5-min Rain = 0
KSC1 140507Z 17006KT 32/13 A2996 RMK A01 T03150127  RH  032%=      5-min Rain = 0
KSC1 140508Z 17006KT 31/13 A2996 RMK A01 T03140127  RH  032%=      5-min Rain = 0
KSC1 140509Z 17006KT 31/13 A2996 RMK A01 T03140127  RH  032%=      5-min Rain = 0
KSC1 140510Z 17005KT 31/13 A2996 RMK A01 T03130126  RH  032%=      5-min Rain = 0
KSC1 140511Z 17007KT 31/13 A2996 RMK A01 T03120126  RH  032%=      5-min Rain = 0
KSC1 140512Z 17008KT 31/13 A2996 RMK A01 T03110126  RH  032%=      5-min Rain = 0
KSC1 140513Z 17006KT 31/13 A2996 RMK A01 T03110126  RH  032%=      5-min Rain = 0
KSC1 140514Z 17006KT 31/13 A2996 RMK A01 T03110126  RH  032%=      5-min Rain = 0
KSC1 140515Z 18007KT 31/13 A2996 RMK A01 T03100126  RH  032%=      5-min Rain = 0
KSC1 140516Z 17006KT 31/13 A2996 RMK A01 T03100126  RH  032%=      5-min Rain = 0
KSC1 140517Z 17006KT 31/13 A2996 RMK A01 T03100126  RH  033%=      5-min Rain = 0
KSC1 140518Z 17006KT 31/13 A2996 RMK A01 T03090126  RH  033%=      5-min Rain = 0
KSC1 140519Z 17006KT 31/13 A2997 RMK A01 T03090126  RH  033%=      5-min Rain = 0
KSC1 140520Z 17007KT 31/13 A2997 RMK A01 T03080126  RH  033%=      5-min Rain = 0
KSC1 140521Z 17008KT 31/13 A2997 RMK A01 T03080126  RH  033%=      5-min Rain = 0
KSC1 140522Z 18006KT 31/13 A2997 RMK A01 T03080126  RH  033%=      5-min Rain = 0
KSC1 140523Z 18007KT 31/13 A2997 RMK A01 T03070126  RH  033%=      5-min Rain = 0
KSC1 140524Z 18008KT 31/13 A2997 RMK A01 T03070126  RH  033%=      5-min Rain = 0
KSC1 140525Z 18007KT 31/13 A2997 RMK A01 T03070126  RH  033%=      5-min Rain = 0
KSC1 140526Z 18007KT 31/13 A2997 RMK A01 T03070126  RH  033%=      5-min Rain = 0
KSC1 140527Z 18008KT 31/13 A2997 RMK A01 T03070126  RH  033%=      5-min Rain = 0
KSC1 140528Z 17009KT 31/13 A2997 RMK A01 T03070126  RH  033%=      5-min Rain = 0
KSC1 140529Z 17008G13KT 31/13 A2997 RMK A01 T03080126  RH  033%=      5-min Rain = 0
KSC1 140530Z 16007KT 31/13 A2997 RMK A01 T03080126  RH  033%=      5-min Rain = 0
KSC1 140531Z 16006KT 31/13 A2997 RMK A01 T03080126  RH  033%=      5-min Rain = 0
KSC1 140532Z 16007KT 31/13 A2997 RMK A01 T03060126  RH  033%=      5-min Rain = 0
KSC1 140533Z 17008KT 31/13 A2997 RMK A01 T03060126  RH  033%=      5-min Rain = 0
KSC1 140534Z 16007KT 31/13 A2997 RMK A01 T03050126  RH  033%=      5-min Rain = 0
KSC1 140535Z 17008KT 31/13 A2997 RMK A01 T03050126  RH  033%=      5-min Rain = 0
KSC1 140536Z 16007KT 31/13 A2997 RMK A01 T03050126  RH  033%=      5-min Rain = 0
KSC1 140537Z 17007KT 31/13 A2997 RMK A01 T03050126  RH  034%=      5-min Rain = 0
KSC1 140538Z 17006KT 30/13 A2997 RMK A01 T03040126  RH  034%=      5-min Rain = 0
KSC1 140539Z 17006KT 30/13 A2997 RMK A01 T03040126  RH  034%=      5-min Rain = 0
KSC1 140540Z 18005KT 30/13 A2997 RMK A01 T03030126  RH  034%=      5-min Rain = 0
KSC1 140541Z 18007KT 30/13 A2997 RMK A01 T03020126  RH  034%=      5-min Rain = 0
KSC1 140542Z 18005KT 30/13 A2997 RMK A01 T03020126  RH  034%=      5-min Rain = 0
KSC1 140543Z 18006KT 30/13 A2997 RMK A01 T03020126  RH  034%=      5-min Rain = 0
KSC1 140544Z 18006KT 30/13 A2997 RMK A01 T03020126  RH  034%=      5-min Rain = 0
KSC1 140545Z 19007KT 30/13 A2997 RMK A01 T03020126  RH  034%=      5-min Rain = 0
KSC1 140546Z 18007KT 30/13 A2997 RMK A01 T03020126  RH  034%=      5-min Rain = 0
KSC1 140547Z 18008KT 30/13 A2997 RMK A01 T03030126  RH  034%=      5-min Rain = 0
KSC1 140548Z 18010KT 30/13 A2997 RMK A01 T03030127  RH  034%=      5-min Rain = 0
KSC1 140549Z 18007KT 30/13 A2997 RMK A01 T03040126  RH  034%=      5-min Rain = 0
KSC1 140550Z 18008KT 31/13 A2997 RMK A01 T03050127  RH  034%=      5-min Rain = 0
KSC1 140551Z 18007KT 31/13 A2997 RMK A01 T03050127  RH  034%=      5-min Rain = 0
KSC1 140552Z 18006KT 30/13 A2997 RMK A01 T03040127  RH  034%=      5-min Rain = 0
KSC1 140553Z 18008KT 30/13 A2997 RMK A01 T03040126  RH  034%=      5-min Rain = 0
KSC1 140554Z 18010KT 30/13 A2997 RMK A01 T03040127  RH  034%=      5-min Rain = 0
KSC1 140555Z 18008KT 30/13 A2997 RMK A01 T03040127  RH  034%=      5-min Rain = 0
KSC1 140556Z 18008KT 31/13 A2997 RMK A01 T03050127  RH  034%=      5-min Rain = 0
KSC1 140557Z 19009KT 31/13 A2997 RMK A01 T03050127  RH  034%=      5-min Rain = 0
KSC1 140558Z 18008KT 31/13 A2997 RMK A01 T03050127  RH  034%=      5-min Rain = 0
KSC1 140559Z 19007KT 31/13 A2997 RMK A01 T03060127  RH  033%=      5-min Rain = 0
KSC1 140600Z 18007KT 31/13 A2997 RMK A01 T03050127  RH  033%=      5-min Rain = 0
KSC1 140601Z 19007KT 30/13 A2997 RMK A01 T03040126  RH  034%=      5-min Rain = 0
KSC1 140602Z 19008KT 30/13 A2997 RMK A01 T03040127  RH  034%=      5-min Rain = 0
KSC1 140603Z 18009KT 30/13 A2997 RMK A01 T03040127  RH  034%=      5-min Rain = 0
KSC1 140604Z 18009KT 30/13 A2997 RMK A01 T03040127  RH  034%=      5-min Rain = 0
KSC1 140605Z 18009KT 30/13 A2997 RMK A01 T03040126  RH  034%=      5-min Rain = 0
KSC1 140606Z 19007KT 31/13 A2997 RMK A01 T03050127  RH  034%=      5-min Rain = 0
KSC1 140607Z 19006KT 30/13 A2997 RMK A01 T03040126  RH  034%=      5-min Rain = 0
KSC1 140608Z 18007KT 30/13 A2997 RMK A01 T03040126  RH  034%=      5-min Rain = 0
KSC1 140609Z 19007KT 30/13 A2997 RMK A01 T03040127  RH  034%=      5-min Rain = 0
KSC1 140610Z 18009KT 30/13 A2997 RMK A01 T03040127  RH  034%=      5-min Rain = 0
KSC1 140611Z 18011KT 30/13 A2997 RMK A01 T03040127  RH  034%=      5-min Rain = 0
KSC1 140612Z 18010KT 31/13 A2997 RMK A01 T03050127  RH  034%=      5-min Rain = 0
KSC1 140613Z 18011KT 31/13 A2997 RMK A01 T03050127  RH  034%=      5-min Rain = 0
KSC1 140614Z 18009KT 31/13 A2997 RMK A01 T03050127  RH  034%=      5-min Rain = 0
KSC1 140615Z 18010KT 31/13 A2997 RMK A01 T03060127  RH  034%=      5-min Rain = 0
KSC1 140616Z 18008KT 31/13 A2997 RMK A01 T03060127  RH  034%=      5-min Rain = 0
KSC1 140617Z 18008KT 31/13 A2997 RMK A01 T03050127  RH  034%=      5-min Rain = 0
KSC1 140618Z 18009KT 31/13 A2997 RMK A01 T03050127  RH  034%=      5-min Rain = 0
KSC1 140619Z 18009KT 31/13 A2997 RMK A01 T03050127  RH  034%=      5-min Rain = 0
KSC1 140620Z 18009KT 31/13 A2997 RMK A01 T03050127  RH  034%=      5-min Rain = 0
KSC1 140621Z 17010KT 31/13 A2997 RMK A01 T03050127  RH  034%=      5-min Rain = 0
KSC1 140622Z 18011KT 31/13 A2997 RMK A01 T03050127  RH  034%=      5-min Rain = 0
KSC1 140623Z 18010KT 31/13 A2997 RMK A01 T03050127  RH  034%=      5-min Rain = 0
KSC1 140624Z 18011KT 31/13 A2997 RMK A01 T03050127  RH  034%=      5-min Rain = 0
KSC1 140625Z 17011KT 31/13 A2997 RMK A01 T03050128  RH  034%=      5-min Rain = 0
KSC1 140626Z 17009KT 31/13 A2997 RMK A01 T03060128  RH  034%=      5-min Rain = 0
KSC1 140627Z 18009KT 31/13 A2997 RMK A01 T03060128  RH  034%=      5-min Rain = 0
KSC1 140628Z 18009KT 31/13 A2997 RMK A01 T03050128  RH  034%=      5-min Rain = 0
KSC1 140629Z 18010G15KT 31/13 A2997 RMK A01 T03050127  RH  034%=      5-min Rain = 0
KSC1 140630Z 18010KT 31/13 A2997 RMK A01 T03050128  RH  034%=      5-min Rain = 0
KSC1 140631Z 17008G13KT 31/13 A2997 RMK A01 T03050128  RH  034%=      5-min Rain = 0
KSC1 140632Z 18009G14KT 31/13 A2997 RMK A01 T03050128  RH  034%=      5-min Rain = 0
KSC1 140633Z 17010KT 31/13 A2997 RMK A01 T03050128  RH  034%=      5-min Rain = 0
KSC1 140634Z 17010KT 30/13 A2997 RMK A01 T03040128  RH  034%=      5-min Rain = 0
KSC1 140635Z 18008KT 30/13 A2997 RMK A01 T03040128  RH  034%=      5-min Rain = 0
KSC1 140636Z 17009KT 30/13 A2997 RMK A01 T03030127  RH  034%=      5-min Rain = 0
KSC1 140637Z 17008KT 30/13 A2997 RMK A01 T03030128  RH  034%=      5-min Rain = 0
KSC1 140638Z 18010KT 30/13 A2997 RMK A01 T03030128  RH  034%=      5-min Rain = 0
KSC1 140639Z 18008KT 30/13 A2997 RMK A01 T03030128  RH  034%=      5-min Rain = 0
KSC1 140640Z 17009KT 30/13 A2997 RMK A01 T03020128  RH  034%=      5-min Rain = 0
KSC1 140641Z 18009KT 30/13 A2997 RMK A01 T03020127  RH  034%=      5-min Rain = 0
KSC1 140642Z 17009KT 30/13 A2997 RMK A01 T03020128  RH  034%=      5-min Rain = 0
KSC1 140643Z 18008KT 30/13 A2997 RMK A01 T03020128  RH  034%=      5-min Rain = 0
KSC1 140644Z 18008KT 30/13 A2997 RMK A01 T03020128  RH  034%=      5-min Rain = 0
KSC1 140645Z 18007KT 30/13 A2997 RMK A01 T03010128  RH  034%=      5-min Rain = 0
KSC1 140646Z 17009KT 30/13 A2997 RMK A01 T03010128  RH  035%=      5-min Rain = 0
KSC1 140647Z 17009KT 30/13 A2997 RMK A01 T03000128  RH  035%=      5-min Rain = 0
KSC1 140648Z 17008KT 30/13 A2997 RMK A01 T03000128  RH  035%=      5-min Rain = 0
KSC1 140649Z 18008KT 30/13 A2997 RMK A01 T03000128  RH  035%=      5-min Rain = 0
KSC1 140650Z 17007KT 30/13 A2997 RMK A01 T02990128  RH  035%=      5-min Rain = 0
KSC1 140651Z 18006KT 30/13 A2997 RMK A01 T02980128  RH  035%=      5-min Rain = 0
KSC1 140652Z 17007KT 30/13 A2997 RMK A01 T02980128  RH  035%=      5-min Rain = 0
KSC1 140653Z 17007KT 30/13 A2997 RMK A01 T02970128  RH  035%=      5-min Rain = 0
KSC1 140654Z 17009KT 30/13 A2997 RMK A01 T02970128  RH  035%=      5-min Rain = 0
KSC1 140655Z 17008KT 30/13 A2997 RMK A01 T02970129  RH  036%=      5-min Rain = 0
KSC1 140656Z 17007KT 30/13 A2997 RMK A01 T02970128  RH  036%=      5-min Rain = 0
KSC1 140657Z 18007KT 30/13 A2997 RMK A01 T02960128  RH  036%=      5-min Rain = 0
KSC1 140658Z 17007KT 30/13 A2997 RMK A01 T02960129  RH  036%=      5-min Rain = 0
KSC1 140659Z 17007KT 30/13 A2997 RMK A01 T02950129  RH  036%=      5-min Rain = 0
KSC1 140700Z 17007KT 30/13 A2997 RMK A01 T02950128  RH  036%=      5-min Rain = 0
KSC1 140701Z 17006KT 29/13 A2997 RMK A01 T02940128  RH  036%=      5-min Rain = 0
KSC1 140702Z 17007KT 29/13 A2997 RMK A01 T02930128  RH  036%=      5-min Rain = 0
KSC1 140703Z 17006KT 29/13 A2997 RMK A01 T02930128  RH  036%=      5-min Rain = 0
KSC1 140704Z 17006KT 29/13 A2997 RMK A01 T02920129  RH  036%=      5-min Rain = 0
KSC1 140705Z 17008KT 29/13 A2997 RMK A01 T02920129  RH  037%=      5-min Rain = 0
KSC1 140706Z 17008KT 29/13 A2997 RMK A01 T02920129  RH  037%=      5-min Rain = 0
KSC1 140707Z 16006KT 29/13 A2997 RMK A01 T02920129  RH  037%=      5-min Rain = 0
KSC1 140708Z 17008KT 29/13 A2997 RMK A01 T02910129  RH  037%=      5-min Rain = 0
KSC1 140709Z 17007KT 29/13 A2997 RMK A01 T02910129  RH  037%=      5-min Rain = 0
KSC1 140710Z 17008KT 29/13 A2997 RMK A01 T02910129  RH  037%=      5-min Rain = 0
KSC1 140711Z 17009KT 29/13 A2997 RMK A01 T02910129  RH  037%=      5-min Rain = 0
KSC1 140712Z 17008KT 29/13 A2997 RMK A01 T02910129  RH  037%=      5-min Rain = 0
KSC1 140713Z 17007KT 29/13 A2997 RMK A01 T02910130  RH  037%=      5-min Rain = 0
KSC1 140714Z 17006KT 29/13 A2997 RMK A01 T02900130  RH  037%=      5-min Rain = 0
KSC1 140715Z 17007KT 29/13 A2997 RMK A01 T02900130  RH  037%=      5-min Rain = 0
KSC1 140716Z 17006KT 29/13 A2997 RMK A01 T02900130  RH  037%=      5-min Rain = 0
KSC1 140717Z 17009KT 29/13 A2997 RMK A01 T02890130  RH  037%=      5-min Rain = 0
KSC1 140718Z 17008KT 29/13 A2997 RMK A01 T02890130  RH  038%=      5-min Rain = 0
KSC1 140719Z 16007KT 29/13 A2997 RMK A01 T02890130  RH  038%=      5-min Rain = 0
KSC1 140720Z 17009KT 29/13 A2997 RMK A01 T02890130  RH  038%=      5-min Rain = 0
KSC1 140721Z 17006KT 29/13 A2997 RMK A01 T02890130  RH  038%=      5-min Rain = 0
KSC1 140722Z 17007KT 29/13 A2997 RMK A01 T02890130  RH  038%=      5-min Rain = 0
KSC1 140723Z 17007KT 29/13 A2997 RMK A01 T02880130  RH  038%=      5-min Rain = 0
KSC1 140724Z 17008KT 29/13 A2997 RMK A01 T02880130  RH  038%=      5-min Rain = 0
KSC1 140725Z 17009KT 29/13 A2997 RMK A01 T02880130  RH  038%=      5-min Rain = 0
KSC1 140726Z 17008KT 29/13 A2997 RMK A01 T02880130  RH  038%=      5-min Rain = 0
KSC1 140727Z 17009KT 29/13 A2997 RMK A01 T02880130  RH  038%=      5-min Rain = 0
KSC1 140728Z 17005KT 29/13 A2997 RMK A01 T02890131  RH  038%=      5-min Rain = 0
KSC1 140729Z 17008KT 29/13 A2997 RMK A01 T02890131  RH  038%=      5-min Rain = 0
KSC1 140730Z 17006KT 29/13 A2997 RMK A01 T02880131  RH  038%=      5-min Rain = 0
KSC1 140731Z 17007KT 29/13 A2997 RMK A01 T02880131  RH  038%=      5-min Rain = 0
KSC1 140732Z 17007KT 29/13 A2997 RMK A01 T02880131  RH  038%=      5-min Rain = 0
KSC1 140733Z 17007KT 29/13 A2997 RMK A01 T02880131  RH  038%=      5-min Rain = 0
KSC1 140734Z 17008KT 29/13 A2997 RMK A01 T02880131  RH  038%=      5-min Rain = 0
KSC1 140735Z 17009KT 29/13 A2997 RMK A01 T02880131  RH  038%=      5-min Rain = 0
KSC1 140736Z 17007KT 29/13 A2997 RMK A01 T02880131  RH  038%=      5-min Rain = 0
KSC1 140737Z 17006KT 29/13 A2997 RMK A01 T02880131  RH  038%=      5-min Rain = 0
KSC1 140738Z 17007KT 29/13 A2997 RMK A01 T02880132  RH  038%=      5-min Rain = 0
KSC1 140739Z 17006KT 29/13 A2997 RMK A01 T02880131  RH  038%=      5-min Rain = 0
KSC1 140740Z 17008KT 29/13 A2997 RMK A01 T02880132  RH  038%=      5-min Rain = 0
KSC1 140741Z 17007KT 29/13 A2997 RMK A01 T02880132  RH  038%=      5-min Rain = 0
KSC1 140742Z 16008KT 29/13 A2997 RMK A01 T02870131  RH  038%=      5-min Rain = 0
KSC1 140743Z 17008KT 29/13 A2997 RMK A01 T02870131  RH  038%=      5-min Rain = 0
KSC1 140744Z 16006KT 29/13 A2997 RMK A01 T02870132  RH  038%=      5-min Rain = 0
KSC1 140745Z 17006KT 29/13 A2997 RMK A01 T02870131  RH  038%=      5-min Rain = 0
KSC1 140746Z 16005KT 29/13 A2997 RMK A01 T02870131  RH  038%=      5-min Rain = 0
KSC1 140747Z 17006KT 29/13 A2997 RMK A01 T02860131  RH  039%=      5-min Rain = 0
KSC1 140748Z 16007KT 29/13 A2997 RMK A01 T02860132  RH  039%=      5-min Rain = 0
KSC1 140749Z 17007KT 29/13 A2997 RMK A01 T02850132  RH  039%=      5-min Rain = 0
KSC1 140750Z 17006KT 29/13 A2997 RMK A01 T02860132  RH  039%=      5-min Rain = 0
KSC1 140751Z 17007KT 29/13 A2997 RMK A01 T02860132  RH  039%=      5-min Rain = 0
KSC1 140752Z 17006KT 29/13 A2997 RMK A01 T02850132  RH  039%=      5-min Rain = 0
KSC1 140753Z 17007KT 29/13 A2997 RMK A01 T02860132  RH  039%=      5-min Rain = 0
KSC1 140754Z 18008KT 29/13 A2997 RMK A01 T02860132  RH  039%=      5-min Rain = 0
KSC1 140755Z 18006KT 29/13 A2997 RMK A01 T02860132  RH  039%=      5-min Rain = 0
KSC1 140756Z 18007KT 29/13 A2997 RMK A01 T02860132  RH  039%=      5-min Rain = 0
KSC1 140757Z 17006KT 29/13 A2997 RMK A01 T02860133  RH  039%=      5-min Rain = 0
KSC1 140758Z 17007KT 29/13 A2997 RMK A01 T02870133  RH  039%=      5-min Rain = 0
KSC1 140759Z 18007KT 29/13 A2997 RMK A01 T02860133  RH  039%=      5-min Rain = 0
KSC1 140800Z 18008KT 29/13 A2997 RMK A01 T02870133  RH  039%=      5-min Rain = 0
KSC1 140801Z 18008KT 29/13 A2997 RMK A01 T02880133  RH  039%=      5-min Rain = 0
KSC1 140802Z 19009KT 29/13 A2997 RMK A01 T02880133  RH  039%=      5-min Rain = 0
KSC1 140803Z 18008KT 29/13 A2997 RMK A01 T02890133  RH  038%=      5-min Rain = 0
KSC1 140804Z 19007KT 29/13 A2997 RMK A01 T02890133  RH  038%=      5-min Rain = 0
KSC1 140805Z 18010KT 29/13 A2997 RMK A01 T02900133  RH  038%=      5-min Rain = 0
KSC1 140806Z 18008KT 29/13 A2997 RMK A01 T02900133  RH  038%=      5-min Rain = 0
KSC1 140807Z 18007KT 29/13 A2997 RMK A01 T02900134  RH  038%=      5-min Rain = 0
KSC1 140808Z 19009KT 29/13 A2997 RMK A01 T02900133  RH  038%=      5-min Rain = 0
KSC1 140809Z 19009KT 29/13 A2997 RMK A01 T02900133  RH  038%=      5-min Rain = 0
KSC1 140810Z 20007KT 29/13 A2997 RMK A01 T02900133  RH  038%=      5-min Rain = 0
KSC1 140811Z 19009KT 29/13 A2997 RMK A01 T02900133  RH  038%=      5-min Rain = 0
KSC1 140812Z 19009KT 29/13 A2997 RMK A01 T02900134  RH  038%=      5-min Rain = 0
KSC1 140813Z 18008KT 29/13 A2997 RMK A01 T02900134  RH  038%=      5-min Rain = 0
KSC1 140814Z 19008KT 29/13 A2997 RMK A01 T02900134  RH  038%=      5-min Rain = 0
KSC1 140815Z 19008KT 29/13 A2997 RMK A01 T02900134  RH  038%=      5-min Rain = 0
KSC1 140816Z 19007KT 29/13 A2997 RMK A01 T02900134  RH  038%=      5-min Rain = 0
KSC1 140817Z 19008KT 29/13 A2997 RMK A01 T02900134  RH  038%=      5-min Rain = 0
KSC1 140818Z 19007KT 29/13 A2997 RMK A01 T02900134  RH  038%=      5-min Rain = 0
KSC1 140819Z 19008KT 29/13 A2997 RMK A01 T02900134  RH  038%=      5-min Rain = 0
KSC1 140820Z 21005KT 29/13 A2997 RMK A01 T02890134  RH  038%=      5-min Rain = 0
KSC1 140821Z 20004KT 29/13 A2997 RMK A01 T02890133  RH  038%=      5-min Rain = 0
KSC1 140822Z 19004KT 29/13 A2997 RMK A01 T02880133  RH  039%=      5-min Rain = 0
KSC1 140823Z 19005KT 29/13 A2997 RMK A01 T02870133  RH  039%=      5-min Rain = 0
KSC1 140824Z 19005KT 29/13 A2997 RMK A01 T02860133  RH  039%=      5-min Rain = 0
KSC1 140825Z 19006KT 29/13 A2997 RMK A01 T02850133  RH  039%=      5-min Rain = 0
KSC1 140826Z 18006KT 29/13 A2997 RMK A01 T02850133  RH  039%=      5-min Rain = 0
KSC1 140827Z 19008KT 29/13 A2997 RMK A01 T02850133  RH  039%=      5-min Rain = 0
KSC1 140828Z 18007KT 29/13 A2997 RMK A01 T02860134  RH  039%=      5-min Rain = 0
KSC1 140829Z 18007KT 29/13 A2997 RMK A01 T02860134  RH  039%=      5-min Rain = 0
KSC1 140830Z 18007KT 29/13 A2997 RMK A01 T02870134  RH  039%=      5-min Rain = 0
KSC1 140831Z 19007KT 29/13 A2997 RMK A01 T02870134  RH  039%=      5-min Rain = 0
KSC1 140832Z 18006KT 29/13 A2997 RMK A01 T02870134  RH  039%=      5-min Rain = 0
KSC1 140833Z 18007KT 29/13 A2997 RMK A01 T02870134  RH  039%=      5-min Rain = 0
KSC1 140834Z 19007G12KT 29/13 A2997 RMK A01 T02870134  RH  039%=      5-min Rain = 0
KSC1 140835Z 19009KT 29/13 A2997 RMK A01 T02880134  RH  039%=      5-min Rain = 0
KSC1 140836Z 19008KT 29/13 A2997 RMK A01 T02880134  RH  039%=      5-min Rain = 0
KSC1 140837Z 18008KT 29/13 A2997 RMK A01 T02890134  RH  039%=      5-min Rain = 0
KSC1 140838Z 18008G13KT 29/13 A2997 RMK A01 T02890134  RH  039%=      5-min Rain = 0
KSC1 140839Z 18009KT 29/13 A2997 RMK A01 T02890134  RH  039%=      5-min Rain = 0
KSC1 140840Z 19008KT 29/13 A2997 RMK A01 T02890134  RH  039%=      5-min Rain = 0
KSC1 140841Z 19010KT 29/13 A2997 RMK A01 T02880134  RH  039%=      5-min Rain = 0
KSC1 140842Z 18008KT 29/13 A2997 RMK A01 T02880134  RH  039%=      5-min Rain = 0
KSC1 140843Z 18009KT 29/13 A2997 RMK A01 T02890134  RH  039%=      5-min Rain = 0
KSC1 140844Z 19007KT 29/13 A2997 RMK A01 T02890134  RH  039%=      5-min Rain = 0
KSC1 140845Z 19007G13KT 29/13 A2997 RMK A01 T02880134  RH  039%=      5-min Rain = 0
KSC1 140846Z 18007KT 29/13 A2997 RMK A01 T02870134  RH  039%=      5-min Rain = 0
KSC1 140847Z 18009KT 29/13 A2997 RMK A01 T02870134  RH  039%=      5-min Rain = 0
KSC1 140848Z 19011KT 29/13 A2997 RMK A01 T02870134  RH  039%=      5-min Rain = 0
KSC1 140849Z 18009KT 29/13 A2997 RMK A01 T02880134  RH  039%=      5-min Rain = 0
KSC1 140850Z 19007KT 29/13 A2997 RMK A01 T02880134  RH  039%=      5-min Rain = 0
KSC1 140851Z 19006G11KT 29/13 A2998 RMK A01 T02880134  RH  039%=      5-min Rain = 0
KSC1 140852Z 18008KT 29/13 A2997 RMK A01 T02880134  RH  039%=      5-min Rain = 0
KSC1 140853Z 19005KT 29/13 A2997 RMK A01 T02870134  RH  039%=      5-min Rain = 0
KSC1 140854Z 19007KT 29/13 A2997 RMK A01 T02870134  RH  039%=      5-min Rain = 0
KSC1 140855Z 19006KT 29/13 A2997 RMK A01 T02870134  RH  039%=      5-min Rain = 0
KSC1 140856Z 19005KT 29/13 A2997 RMK A01 T02860133  RH  039%=      5-min Rain = 0
KSC1 140857Z 19006KT 29/13 A2997 RMK A01 T02850133  RH  039%=      5-min Rain = 0
KSC1 140858Z 19005KT 29/13 A2997 RMK A01 T02850133  RH  039%=      5-min Rain = 0
KSC1 140859Z 19006KT 28/13 A2997 RMK A01 T02840133  RH  039%=      5-min Rain = 0
KSC1 140900Z 18008KT 28/13 A2997 RMK A01 T02840133  RH  040%=      5-min Rain = 0
KSC1 140901Z 18009KT 28/13 A2997 RMK A01 T02840133  RH  040%=      5-min Rain = 0
KSC1 140902Z 19007KT 29/13 A2997 RMK A01 T02850134  RH  039%=      5-min Rain = 0
KSC1 140903Z 18009KT 29/13 A2997 RMK A01 T02850134  RH  039%=      5-min Rain = 0
KSC1 140904Z 19010KT 29/13 A2997 RMK A01 T02850134  RH  039%=      5-min Rain = 0
KSC1 140905Z 18006KT 29/13 A2997 RMK A01 T02860134  RH  039%=      5-min Rain = 0
KSC1 140906Z 17008KT 29/13 A2997 RMK A01 T02850133  RH  039%=      5-min Rain = 0
KSC1 140907Z 17007KT 29/13 A2997 RMK A01 T02850133  RH  039%=      5-min Rain = 0
KSC1 140908Z 17006KT 29/13 A2997 RMK A01 T02850134  RH  039%=      5-min Rain = 0
KSC1 140909Z 16006KT 28/13 A2997 RMK A01 T02840133  RH  040%=      5-min Rain = 0
KSC1 140910Z 17006KT 28/13 A2997 RMK A01 T02830133  RH  040%=      5-min Rain = 0
KSC1 140911Z 17005KT 28/13 A2997 RMK A01 T02820133  RH  040%=      5-min Rain = 0
KSC1 140912Z 17005KT 28/13 A2997 RMK A01 T02820133  RH  040%=      5-min Rain = 0
KSC1 140913Z 16005KT 28/13 A2997 RMK A01 T02820133  RH  040%=      5-min Rain = 0
KSC1 140914Z 17004KT 28/13 A2997 RMK A01 T02810133  RH  040%=      5-min Rain = 0
KSC1 140915Z 16006KT 28/13 A2997 RMK A01 T02800133  RH  040%=      5-min Rain = 0
KSC1 140916Z 16005KT 28/13 A2997 RMK A01 T02810133  RH  040%=      5-min Rain = 0
KSC1 140917Z 17004KT 28/13 A2997 RMK A01 T02800133  RH  040%=      5-min Rain = 0
KSC1 140918Z 17003KT 28/13 A2997 RMK A01 T02800133  RH  040%=      5-min Rain = 0
KSC1 140919Z 18004KT 28/13 A2997 RMK A01 T02800133  RH  040%=      5-min Rain = 0
KSC1 140920Z 19004KT 28/13 A2997 RMK A01 T02790132  RH  040%=      5-min Rain = 0
KSC1 140921Z 19005KT 28/13 A2997 RMK A01 T02790133  RH  041%=      5-min Rain = 0
KSC1 140922Z 19003KT 28/13 A2997 RMK A01 T02790133  RH  041%=      5-min Rain = 0
KSC1 140923Z 18005KT 28/13 A2997 RMK A01 T02790133  RH  041%=      5-min Rain = 0
KSC1 140924Z 18007KT 28/13 A2997 RMK A01 T02790133  RH  041%=      5-min Rain = 0
KSC1 140925Z 18006KT 28/13 A2997 RMK A01 T02790133  RH  040%=      5-min Rain = 0
KSC1 140926Z 18006KT 28/13 A2997 RMK A01 T02810133  RH  040%=      5-min Rain = 0
KSC1 140927Z 18007KT 28/13 A2997 RMK A01 T02810133  RH  040%=      5-min Rain = 0
KSC1 140928Z 18007KT 28/13 A2997 RMK A01 T02810133  RH  040%=      5-min Rain = 0
KSC1 140929Z 18008KT 28/13 A2997 RMK A01 T02810133  RH  040%=      5-min Rain = 0
KSC1 140930Z 17006KT 28/13 A2997 RMK A01 T02810133  RH  040%=      5-min Rain = 0
KSC1 140931Z 18007KT 28/13 A2997 RMK A01 T02810133  RH  040%=      5-min Rain = 0
KSC1 140932Z 17006KT 28/13 A2997 RMK A01 T02810133  RH  040%=      5-min Rain = 0
KSC1 140933Z 17007KT 28/13 A2997 RMK A01 T02800133  RH  040%=      5-min Rain = 0
KSC1 140934Z 18008KT 28/13 A2997 RMK A01 T02800133  RH  040%=      5-min Rain = 0
KSC1 140935Z 16006KT 28/13 A2997 RMK A01 T02800133  RH  040%=      5-min Rain = 0
KSC1 140936Z 17005KT 28/13 A2997 RMK A01 T02800133  RH  040%=      5-min Rain = 0
KSC1 140937Z 18006KT 28/13 A2997 RMK A01 T02800133  RH  040%=      5-min Rain = 0
KSC1 140938Z 17004KT 28/13 A2997 RMK A01 T02790133  RH  041%=      5-min Rain = 0
KSC1 140939Z 18006KT 28/13 A2997 RMK A01 T02780133  RH  041%=      5-min Rain = 0
KSC1 140940Z 18007KT 28/13 A2997 RMK A01 T02780133  RH  041%=      5-min Rain = 0
KSC1 140941Z 17006KT 28/13 A2997 RMK A01 T02780133  RH  041%=      5-min Rain = 0
KSC1 140942Z 18005KT 28/13 A2997 RMK A01 T02780133  RH  041%=      5-min Rain = 0
KSC1 140943Z 17006KT 28/13 A2997 RMK A01 T02780133  RH  041%=      5-min Rain = 0
KSC1 140944Z 18007KT 28/13 A2997 RMK A01 T02780133  RH  041%=      5-min Rain = 0
KSC1 140945Z 19007KT 28/13 A2997 RMK A01 T02780133  RH  041%=      5-min Rain = 0
KSC1 140946Z 18006KT 28/13 A2997 RMK A01 T02780133  RH  041%=      5-min Rain = 0
KSC1 140947Z 17006KT 28/13 A2997 RMK A01 T02780133  RH  041%=      5-min Rain = 0
KSC1 140948Z 18005KT 28/13 A2997 RMK A01 T02780133  RH  041%=      5-min Rain = 0
KSC1 140949Z 18007KT 28/13 A2997 RMK A01 T02780133  RH  041%=      5-min Rain = 0
KSC1 140950Z 18006KT 28/13 A2997 RMK A01 T02780133  RH  041%=      5-min Rain = 0
KSC1 140951Z 18007KT 28/13 A2997 RMK A01 T02780133  RH  041%=      5-min Rain = 0
KSC1 140952Z 17007KT 28/13 A2997 RMK A01 T02780133  RH  041%=      5-min Rain = 0
KSC1 140953Z 17006KT 28/13 A2997 RMK A01 T02790133  RH  041%=      5-min Rain = 0
KSC1 140954Z 17006KT 28/13 A2997 RMK A01 T02780133  RH  041%=      5-min Rain = 0
KSC1 140955Z 18005KT 28/13 A2997 RMK A01 T02780133  RH  041%=      5-min Rain = 0
KSC1 140956Z 18006KT 28/13 A2997 RMK A01 T02770132  RH  041%=      5-min Rain = 0
KSC1 140957Z 17005KT 28/13 A2997 RMK A01 T02770133  RH  041%=      5-min Rain = 0
KSC1 140958Z 18007KT 28/13 A2997 RMK A01 T02770133  RH  041%=      5-min Rain = 0
KSC1 140959Z 18008KT 28/13 A2997 RMK A01 T02770133  RH  041%=      5-min Rain = 0
KSC1 141000Z 18007KT 28/13 A2997 RMK A01 T02770133  RH  041%=      5-min Rain = 0
KSC1 141001Z 18007KT 28/13 A2997 RMK A01 T02770133  RH  041%=      5-min Rain = 0
KSC1 141002Z 19005KT 28/13 A2997 RMK A01 T02770133  RH  041%=      5-min Rain = 0
KSC1 141003Z 19005KT 28/13 A2997 RMK A01 T02760133  RH  041%=      5-min Rain = 0
KSC1 141004Z 19005KT 28/13 A2997 RMK A01 T02760133  RH  041%=      5-min Rain = 0
KSC1 141005Z 21004KT 28/13 A2997 RMK A01 T02760133  RH  041%=      5-min Rain = 0
KSC1 141006Z 21005KT 28/13 A2997 RMK A01 T02760132  RH  041%=      5-min Rain = 0
KSC1 141007Z 20003KT 28/13 A2997 RMK A01 T02750132  RH  041%=      5-min Rain = 0
KSC1 141008Z 19003KT 27/13 A2997 RMK A01 T02740133  RH  042%=      5-min Rain = 0
KSC1 141009Z 18004KT 27/13 A2997 RMK A01 T02740133  RH  042%=      5-min Rain = 0
KSC1 141010Z 20005KT 27/13 A2997 RMK A01 T02740133  RH  042%=      5-min Rain = 0
KSC1 141011Z 20005KT 27/13 A2997 RMK A01 T02740133  RH  042%=      5-min Rain = 0
KSC1 141012Z 19007KT 27/13 A2997 RMK A01 T02730133  RH  042%=      5-min Rain = 0
KSC1 141013Z 19004KT 27/13 A2997 RMK A01 T02730133  RH  042%=      5-min Rain = 0
KSC1 141014Z 20004KT 27/13 A2997 RMK A01 T02730132  RH  042%=      5-min Rain = 0
KSC1 141015Z 19005KT 27/13 A2997 RMK A01 T02730133  RH  042%=      5-min Rain = 0
KSC1 141016Z 19006KT 27/13 A2997 RMK A01 T02730133  RH  042%=      5-min Rain = 0
KSC1 141017Z 19008KT 27/13 A2997 RMK A01 T02720133  RH  042%=      5-min Rain = 0
KSC1 141018Z 20007KT 27/13 A2997 RMK A01 T02730133  RH  042%=      5-min Rain = 0
KSC1 141019Z 18006KT 27/13 A2997 RMK A01 T02740133  RH  042%=      5-min Rain = 0
KSC1 141020Z 19007KT 27/13 A2997 RMK A01 T02730133  RH  042%=      5-min Rain = 0
KSC1 141021Z 19007KT 27/13 A2997 RMK A01 T02740133  RH  042%=      5-min Rain = 0
KSC1 141022Z 18006KT 27/13 A2997 RMK A01 T02740133  RH  042%=      5-min Rain = 0
KSC1 141023Z 18005KT 27/13 A2997 RMK A01 T02730133  RH  042%=      5-min Rain = 0
KSC1 141024Z 19005KT 27/13 A2997 RMK A01 T02720133  RH  042%=      5-min Rain = 0
KSC1 141025Z 18007KT 27/13 A2997 RMK A01 T02720133  RH  042%=      5-min Rain = 0
KSC1 141026Z 17007KT 27/13 A2997 RMK A01 T02720133  RH  042%=      5-min Rain = 0
KSC1 141027Z 18006KT 27/13 A2997 RMK A01 T02720133  RH  042%=      5-min Rain = 0
KSC1 141028Z 17005KT 27/13 A2997 RMK A01 T02720133  RH  042%=      5-min Rain = 0
KSC1 141029Z 18007KT 27/13 A2997 RMK A01 T02710133  RH  043%=      5-min Rain = 0
KSC1 141030Z 17007KT 27/13 A2997 RMK A01 T02710133  RH  043%=      5-min Rain = 0
KSC1 141031Z 16004KT 27/13 A2997 RMK A01 T02710133  RH  043%=      5-min Rain = 0
KSC1 141032Z 17004KT 27/13 A2997 RMK A01 T02710133  RH  043%=      5-min Rain = 0
KSC1 141033Z 17004KT 27/13 A2997 RMK A01 T02700133  RH  043%=      5-min Rain = 0
KSC1 141034Z 18004KT 27/13 A2997 RMK A01 T02700133  RH  043%=      5-min Rain = 0
KSC1 141035Z 19006KT 27/13 A2997 RMK A01 T02680133  RH  043%=      5-min Rain = 0
KSC1 141036Z 18005KT 27/13 A2997 RMK A01 T02680133  RH  043%=      5-min Rain = 0
KSC1 141037Z 18005KT 27/13 A2997 RMK A01 T02680133  RH  043%=      5-min Rain = 0
KSC1 141038Z 19006KT 27/13 A2997 RMK A01 T02680134  RH  043%=      5-min Rain = 0
KSC1 141039Z 18006KT 27/13 A2997 RMK A01 T02690134  RH  043%=      5-min Rain = 0
KSC1 141040Z 16004KT 27/13 A2997 RMK A01 T02690133  RH  043%=      5-min Rain = 0
KSC1 141041Z 18005KT 27/13 A2997 RMK A01 T02690133  RH  043%=      5-min Rain = 0
KSC1 141042Z 18004KT 27/13 A2997 RMK A01 T02680133  RH  043%=      5-min Rain = 0
KSC1 141043Z 19004KT 27/13 A2997 RMK A01 T02680133  RH  043%=      5-min Rain = 0
KSC1 141044Z 18005KT 27/13 A2997 RMK A01 T02670133  RH  044%=      5-min Rain = 0
KSC1 141045Z 17005KT 27/13 A2997 RMK A01 T02670133  RH  044%=      5-min Rain = 0
KSC1 141046Z 17003KT 27/13 A2997 RMK A01 T02670133  RH  044%=      5-min Rain = 0
KSC1 141047Z 17003KT 27/13 A2997 RMK A01 T02660133  RH  044%=      5-min Rain = 0
KSC1 141048Z 18004KT 27/13 A2997 RMK A01 T02650133  RH  044%=      5-min Rain = 0
KSC1 141049Z 17004KT 27/13 A2997 RMK A01 T02650133  RH  044%=      5-min Rain = 0
KSC1 141050Z 18004KT 26/13 A2997 RMK A01 T02640133  RH  044%=      5-min Rain = 0
KSC1 141051Z 17005KT 26/13 A2997 RMK A01 T02640133  RH  044%=      5-min Rain = 0
KSC1 141052Z 18003KT 26/13 A2997 RMK A01 T02640134  RH  044%=      5-min Rain = 0
KSC1 141053Z 17003KT 26/13 A2997 RMK A01 T02640134  RH  044%=      5-min Rain = 0
KSC1 141054Z 17004KT 26/13 A2997 RMK A01 T02640134  RH  044%=      5-min Rain = 0
KSC1 141055Z 17003KT 26/13 A2997 RMK A01 T02640134  RH  045%=      5-min Rain = 0
KSC1 141056Z 17004KT 26/13 A2997 RMK A01 T02640134  RH  045%=      5-min Rain = 0
KSC1 141057Z 18002KT 26/13 A2997 RMK A01 T02630133  RH  045%=      5-min Rain = 0
KSC1 141058Z 20003KT 26/13 A2997 RMK A01 T02630133  RH  045%=      5-min Rain = 0
KSC1 141059Z 18003KT 26/13 A2997 RMK A01 T02630134  RH  045%=      5-min Rain = 0
KSC1 141100Z 17004KT 26/13 A2997 RMK A01 T02620133  RH  045%=      5-min Rain = 0
KSC1 141101Z 18005KT 26/13 A2997 RMK A01 T02620134  RH  045%=      5-min Rain = 0
KSC1 141102Z 19006KT 26/13 A2997 RMK A01 T02630134  RH  045%=      5-min Rain = 0
KSC1 141103Z 20003KT 26/14 A2997 RMK A01 T02640135  RH  045%=      5-min Rain = 0
KSC1 141104Z 17002KT 26/13 A2998 RMK A01 T02640134  RH  045%=      5-min Rain = 0
KSC1 141105Z 19002KT 26/13 A2998 RMK A01 T02630134  RH  045%=      5-min Rain = 0
KSC1 141106Z 21002KT 26/13 A2998 RMK A01 T02630134  RH  045%=      5-min Rain = 0
KSC1 141107Z 18003KT 26/13 A2998 RMK A01 T02630134  RH  045%=      5-min Rain = 0
KSC1 141108Z 17003KT 26/13 A2997 RMK A01 T02620134  RH  045%=      5-min Rain = 0
KSC1 141109Z 17004KT 26/13 A2997 RMK A01 T02620134  RH  045%=      5-min Rain = 0
KSC1 141110Z 16005KT 26/13 A2997 RMK A01 T02620134  RH  045%=      5-min Rain = 0
KSC1 141111Z 17005KT 26/14 A2997 RMK A01 T02620135  RH  045%=      5-min Rain = 0
KSC1 141112Z 19003KT 26/14 A2997 RMK A01 T02630135  RH  045%=      5-min Rain = 0
KSC1 141113Z 17003KT 26/13 A2997 RMK A01 T02620134  RH  045%=      5-min Rain = 0
KSC1 141114Z 18004KT 26/14 A2997 RMK A01 T02620135  RH  045%=      5-min Rain = 0
KSC1 141115Z 17004KT 26/14 A2997 RMK A01 T02620135  RH  045%=      5-min Rain = 0
KSC1 141116Z 17004KT 26/13 A2997 RMK A01 T02620134  RH  045%=      5-min Rain = 0
KSC1 141117Z 16003KT 26/14 A2997 RMK A01 T02620135  RH  045%=      5-min Rain = 0
KSC1 141118Z 17002KT 26/13 A2997 RMK A01 T02620134  RH  045%=      5-min Rain = 0
KSC1 141119Z 18003KT 26/13 A2997 RMK A01 T02610134  RH  046%=      5-min Rain = 0
KSC1 141120Z 16002KT 26/13 A2997 RMK A01 T02600134  RH  046%=      5-min Rain = 0
KSC1 141121Z 16000KT 26/13 A2997 RMK A01 T02590134  RH  046%=      5-min Rain = 0
KSC1 141122Z 17002KT 26/13 A2997 RMK A01 T02580134  RH  046%=      5-min Rain = 0
KSC1 141123Z 18003KT 26/13 A2997 RMK A01 T02570134  RH  047%=      5-min Rain = 0
KSC1 141124Z 17003KT 26/13 A2997 RMK A01 T02560134  RH  047%=      5-min Rain = 0
KSC1 141125Z 17002KT 26/13 A2997 RMK A01 T02550134  RH  047%=      5-min Rain = 0
KSC1 141126Z 16003KT 26/13 A2997 RMK A01 T02550134  RH  047%=      5-min Rain = 0
KSC1 141127Z 14004KT 26/13 A2997 RMK A01 T02550134  RH  047%=      5-min Rain = 0
KSC1 141128Z 16004KT 26/14 A2997 RMK A01 T02550135  RH  047%=      5-min Rain = 0
KSC1 141129Z 18002KT 26/14 A2997 RMK A01 T02550135  RH  047%=      5-min Rain = 0
KSC1 141130Z 19003KT 26/14 A2998 RMK A01 T02560135  RH  047%=      5-min Rain = 0
KSC1 141131Z 17002KT 26/14 A2998 RMK A01 T02560135  RH  047%=      5-min Rain = 0
KSC1 141132Z 13000KT 26/14 A2998 RMK A01 T02560135  RH  047%=      5-min Rain = 0
KSC1 141133Z 14001KT 26/14 A2998 RMK A01 T02550135  RH  047%=      5-min Rain = 0
KSC1 141134Z 17002KT 26/14 A2998 RMK A01 T02550135  RH  047%=      5-min Rain = 0
KSC1 141135Z 19003KT 26/14 A2998 RMK A01 T02550135  RH  047%=      5-min Rain = 0
KSC1 141136Z 17002KT 26/14 A2998 RMK A01 T02550135  RH  047%=      5-min Rain = 0
KSC1 141137Z 16002KT 26/14 A2998 RMK A01 T02550135  RH  047%=      5-min Rain = 0
KSC1 141138Z 17002KT 26/14 A2998 RMK A01 T02550135  RH  047%=      5-min Rain = 0
KSC1 141139Z 17003KT 26/14 A2998 RMK A01 T02550135  RH  047%=      5-min Rain = 0
KSC1 141140Z 16003KT 26/14 A2998 RMK A01 T02550135  RH  047%=      5-min Rain = 0
KSC1 141141Z 18003KT 26/14 A2998 RMK A01 T02550135  RH  047%=      5-min Rain = 0
KSC1 141142Z 20001KT 26/14 A2998 RMK A01 T02560135  RH  047%=      5-min Rain = 0
KSC1 141143Z 23001KT 26/14 A2998 RMK A01 T02550135  RH  047%=      5-min Rain = 0
KSC1 141144Z 05000KT 25/14 A2998 RMK A01 T02540135  RH  047%=      5-min Rain = 0
KSC1 141145Z 08000KT 25/14 A2998 RMK A01 T02530135  RH  048%=      5-min Rain = 0
KSC1 141146Z 10001KT 25/14 A2998 RMK A01 T02520135  RH  048%=      5-min Rain = 0
KSC1 141147Z 12001KT 25/13 A2998 RMK A01 T02510134  RH  048%=      5-min Rain = 0
KSC1 141148Z 04001KT 25/13 A2998 RMK A01 T02500134  RH  048%=      5-min Rain = 0
KSC1 141149Z 05001KT 25/13 A2999 RMK A01 T02490133  RH  048%=      5-min Rain = 0
KSC1 141150Z 09001KT 25/13 A2999 RMK A01 T02470133  RH  049%=      5-min Rain = 0
KSC1 141151Z 09001KT 25/13 A2999 RMK A01 T02450133  RH  050%=      5-min Rain = 0
KSC1 141152Z 09001KT 24/13 A2999 RMK A01 T02440134  RH  050%=      5-min Rain = 0
KSC1 141153Z 08000KT 24/14 A2999 RMK A01 T02430135  RH  051%=      5-min Rain = 0
KSC1 141154Z 11002KT 24/13 A2999 RMK A01 T02440134  RH  050%=      5-min Rain = 0
KSC1 141155Z 19003KT 25/13 A2999 RMK A01 T02450134  RH  050%=      5-min Rain = 0
KSC1 141156Z 19001KT 25/14 A2999 RMK A01 T02450135  RH  050%=      5-min Rain = 0
KSC1 141157Z 11001KT 25/13 A2999 RMK A01 T02450134  RH  050%=      5-min Rain = 0
KSC1 141158Z 15001KT 25/13 A2999 RMK A01 T02450134  RH  050%=      5-min Rain = 0
KSC1 141159Z 21002KT 24/13 A2999 RMK A01 T02440134  RH  050%=      5-min Rain = 0
KSC1 141200Z 18005KT 24/14 A2999 RMK A01 T02440135  RH  051%=      5-min Rain = 0
KSC1 141201Z 16001KT 25/14 A2999 RMK A01 T02450136  RH  050%=      5-min Rain = 0
KSC1 141202Z 17002KT 25/14 A2999 RMK A01 T02460135  RH  050%=      5-min Rain = 0
KSC1 141203Z 18003KT 25/14 A2999 RMK A01 T02470136  RH  050%=      5-min Rain = 0
KSC1 141204Z 16001KT 25/14 A2999 RMK A01 T02470136  RH  050%=      5-min Rain = 0
KSC1 141205Z 18001KT 25/14 A2999 RMK A01 T02480136  RH  050%=      5-min Rain = 0
KSC1 141206Z 15001KT 25/14 A2999 RMK A01 T02480136  RH  050%=      5-min Rain = 0
KSC1 141207Z 11002KT 25/14 A2999 RMK A01 T02480135  RH  049%=      5-min Rain = 0
KSC1 141208Z 13002KT 25/14 A2999 RMK A01 T02470135  RH  050%=      5-min Rain = 0
KSC1 141209Z 13002KT 25/14 A2999 RMK A01 T02450135  RH  050%=      5-min Rain = 0
KSC1 141210Z 14003KT 24/14 A2999 RMK A01 T02440135  RH  050%=      5-min Rain = 0
KSC1 141211Z 14004KT 24/14 A2999 RMK A01 T02440136  RH  051%=      5-min Rain = 0
KSC1 141212Z 13002KT 25/14 A2999 RMK A01 T02450136  RH  051%=      5-min Rain = 0
KSC1 141213Z 14003KT 25/14 A2999 RMK A01 T02450135  RH  050%=      5-min Rain = 0
KSC1 141214Z 13002KT 25/14 A2999 RMK A01 T02450135  RH  050%=      5-min Rain = 0
KSC1 141215Z 15002KT 24/14 A2999 RMK A01 T02440135  RH  051%=      5-min Rain = 0
KSC1 141216Z 16003KT 24/14 A2999 RMK A01 T02430136  RH  051%=      5-min Rain = 0
KSC1 141217Z 14004KT 24/14 A2999 RMK A01 T02430136  RH  051%=      5-min Rain = 0
KSC1 141218Z 14003KT 24/14 A2999 RMK A01 T02440137  RH  051%=      5-min Rain = 0
KSC1 141219Z 15003KT 25/14 A2999 RMK A01 T02450137  RH  051%=      5-min Rain = 0
KSC1 141220Z 16003KT 25/14 A2999 RMK A01 T02450137  RH  051%=      5-min Rain = 0
KSC1 141221Z 15003KT 25/14 A2999 RMK A01 T02450137  RH  051%=      5-min Rain = 0
KSC1 141222Z 15004KT 25/14 A2999 RMK A01 T02460138  RH  051%=      5-min Rain = 0
KSC1 141223Z 15004KT 25/14 A2999 RMK A01 T02460138  RH  051%=      5-min Rain = 0
KSC1 141224Z 15004KT 25/14 A2999 RMK A01 T02460139  RH  051%=      5-min Rain = 0
KSC1 141225Z 16004KT 25/14 A2999 RMK A01 T02470139  RH  051%=      5-min Rain = 0
KSC1 141226Z 14003KT 25/14 A2999 RMK A01 T02470139  RH  051%=      5-min Rain = 0
KSC1 141227Z 16004KT 25/14 A2999 RMK A01 T02470138  RH  051%=      5-min Rain = 0
KSC1 141228Z 14003KT 25/14 A2999 RMK A01 T02480139  RH  051%=      5-min Rain = 0
KSC1 141229Z 15004KT 25/14 A2999 RMK A01 T02480139  RH  051%=      5-min Rain = 0
KSC1 141230Z 15005KT 25/14 A2999 RMK A01 T02480139  RH  051%=      5-min Rain = 0
KSC1 141231Z 15004KT 25/14 A2999 RMK A01 T02490139  RH  051%=      5-min Rain = 0
KSC1 141232Z 15004KT 25/14 A2999 RMK A01 T02490140  RH  050%=      5-min Rain = 0
KSC1 141233Z 16005KT 25/14 A2999 RMK A01 T02500140  RH  050%=      5-min Rain = 0
KSC1 141234Z 16004KT 25/14 A2999 RMK A01 T02500141  RH  050%=      5-min Rain = 0
KSC1 141235Z 17004KT 25/14 A2999 RMK A01 T02510141  RH  050%=      5-min Rain = 0
KSC1 141236Z 15004KT 25/14 A30 RMK A01 T02510141  RH  050%=      5-min Rain = 0
KSC1 141237Z 17006KT 25/14 A30 RMK A01 T02510142  RH  051%=      5-min Rain = 0
KSC1 141238Z 16006KT 25/14 A30 RMK A01 T02520143  RH  051%=      5-min Rain = 0
KSC1 141239Z 17007KT 25/14 A30 RMK A01 T02530143  RH  051%=      5-min Rain = 0
KSC1 141240Z 17007KT 25/14 A30 RMK A01 T02540143  RH  050%=      5-min Rain = 0
KSC1 141241Z 16005KT 26/14 A30 RMK A01 T02550144  RH  050%=      5-min Rain = 0
KSC1 141242Z 17004KT 26/14 A30 RMK A01 T02550144  RH  050%=      5-min Rain = 0
KSC1 141243Z 16006G11KT 26/14 A30 RMK A01 T02550144  RH  050%=      5-min Rain = 0
KSC1 141244Z 16008G13KT 26/15 A30 RMK A01 T02560145  RH  050%=      5-min Rain = 0
KSC1 141245Z 17011KT 26/15 A30 RMK A01 T02570146  RH  050%=      5-min Rain = 0
KSC1 141246Z 17005KT 26/15 A30 RMK A01 T02580146  RH  050%=      5-min Rain = 0
KSC1 141247Z 17005KT 26/15 A30 RMK A01 T02570146  RH  050%=      5-min Rain = 0
KSC1 141248Z 19006G11KT 26/15 A30 RMK A01 T02580146  RH  050%=      5-min Rain = 0
KSC1 141249Z 16006KT 26/15 A30 RMK A01 T02580146  RH  050%=      5-min Rain = 0
KSC1 141250Z 18004KT 26/15 A30 RMK A01 T02590147  RH  050%=      5-min Rain = 0
KSC1 141251Z 17004KT 26/15 A30 RMK A01 T02590147  RH  050%=      5-min Rain = 0
KSC1 141252Z 18005KT 26/15 A30 RMK A01 T02590147  RH  050%=      5-min Rain = 0
KSC1 141253Z 18007KT 26/15 A30 RMK A01 T02600147  RH  050%=      5-min Rain = 0
KSC1 141254Z 19008KT 26/15 A30 RMK A01 T02600148  RH  050%=      5-min Rain = 0
KSC1 141255Z 19009KT 26/15 A30 RMK A01 T02610148  RH  050%=      5-min Rain = 0
KSC1 141256Z 18009KT 26/15 A30 RMK A01 T02610149  RH  050%=      5-min Rain = 0
KSC1 141257Z 19010KT 26/15 A30 RMK A01 T02620149  RH  050%=      5-min Rain = 0
KSC1 141258Z 18011G16KT 26/15 A30 RMK A01 T02620150  RH  050%=      5-min Rain = 0
KSC1 141259Z 18010KT 26/15 A30 RMK A01 T02630150  RH  050%=      5-min Rain = 0
KSC1 141300Z 20006KT 26/15 A30 RMK A01 T02630150  RH  050%=      5-min Rain = 0
KSC1 141301Z 21003KT 26/15 A30 RMK A01 T02630150  RH  050%=      5-min Rain = 0
KSC1 141302Z 19005KT 26/15 A30 RMK A01 T02640150  RH  050%=      5-min Rain = 0
KSC1 141303Z 21005KT 26/15 A30 RMK A01 T02640150  RH  050%=      5-min Rain = 0
KSC1 141304Z 22008KT 26/15 A3001 RMK A01 T02640150  RH  049%=      5-min Rain = 0
KSC1 141305Z 23005KT 26/15 A3001 RMK A01 T02640150  RH  049%=      5-min Rain = 0
KSC1 141306Z 20007KT 26/15 A3001 RMK A01 T02640150  RH  050%=      5-min Rain = 0
KSC1 141307Z 19005KT 26/15 A3001 RMK A01 T02640151  RH  050%=      5-min Rain = 0
KSC1 141308Z 22005KT 27/15 A3001 RMK A01 T02650151  RH  050%=      5-min Rain = 0
KSC1 141309Z 19003KT 27/15 A3001 RMK A01 T02650151  RH  049%=      5-min Rain = 0
KSC1 141310Z 21006KT 27/15 A3001 RMK A01 T02650151  RH  049%=      5-min Rain = 0
KSC1 141311Z 20006KT 27/15 A3001 RMK A01 T02660151  RH  049%=      5-min Rain = 0
KSC1 141312Z 19005KT 27/15 A3001 RMK A01 T02650151  RH  049%=      5-min Rain = 0
KSC1 141313Z 19007KT 27/15 A3001 RMK A01 T02660152  RH  050%=      5-min Rain = 0
KSC1 141314Z 18004KT 27/15 A3001 RMK A01 T02660153  RH  050%=      5-min Rain = 0
KSC1 141315Z 18010KT 27/15 A3001 RMK A01 T02670153  RH  050%=      5-min Rain = 0
KSC1 141316Z 18006KT 27/15 A3001 RMK A01 T02670153  RH  050%=      5-min Rain = 0
KSC1 141317Z 19006KT 27/15 A3001 RMK A01 T02670154  RH  050%=      5-min Rain = 0
KSC1 141318Z 18007KT 27/15 A3001 RMK A01 T02680154  RH  050%=      5-min Rain = 0
KSC1 141319Z 18008KT 27/15 A3001 RMK A01 T02690154  RH  049%=      5-min Rain = 0
KSC1 141320Z 20007KT 27/15 A3001 RMK A01 T02690154  RH  049%=      5-min Rain = 0
KSC1 141321Z 18006KT 27/16 A3001 RMK A01 T02690155  RH  049%=      5-min Rain = 0
KSC1 141322Z 18008KT 27/16 A3001 RMK A01 T02690155  RH  049%=      5-min Rain = 0
KSC1 141323Z 18013KT 27/16 A3001 RMK A01 T02700155  RH  050%=      5-min Rain = 0
KSC1 141324Z 17008G13KT 27/16 A3001 RMK A01 T02700155  RH  050%=      5-min Rain = 0
KSC1 141325Z 17008KT 27/16 A3001 RMK A01 T02690156  RH  050%=      5-min Rain = 0
KSC1 141326Z 18006KT 27/16 A3001 RMK A01 T02700156  RH  050%=      5-min Rain = 0
KSC1 141327Z 19010KT 27/16 A3001 RMK A01 T02710157  RH  050%=      5-min Rain = 0
KSC1 141328Z 18009KT 27/16 A3001 RMK A01 T02720157  RH  049%=      5-min Rain = 0
KSC1 141329Z 17007KT 27/16 A3001 RMK A01 T02720157  RH  049%=      5-min Rain = 0
KSC1 141330Z 19010KT 27/16 A3001 RMK A01 T02730157  RH  049%=      5-min Rain = 0
KSC1 141331Z 19008KT 27/16 A3001 RMK A01 T02730157  RH  049%=      5-min Rain = 0
KSC1 141332Z 18013KT 27/16 A3001 RMK A01 T02730157  RH  049%=      5-min Rain = 0
KSC1 141333Z 18009KT 27/16 A3001 RMK A01 T02730157  RH  049%=      5-min Rain = 0
KSC1 141334Z 18007KT 27/16 A3001 RMK A01 T02720157  RH  049%=      5-min Rain = 0
KSC1 141335Z 18006KT 27/16 A3001 RMK A01 T02730158  RH  049%=      5-min Rain = 0
KSC1 141336Z 18009G14KT 27/16 A3001 RMK A01 T02740159  RH  049%=      5-min Rain = 0
KSC1 141337Z 19011KT 27/16 A3001 RMK A01 T02740158  RH  049%=      5-min Rain = 0
KSC1 141338Z 18010KT 28/16 A3001 RMK A01 T02750159  RH  049%=      5-min Rain = 0
KSC1 141339Z 19009KT 27/16 A3001 RMK A01 T02740158  RH  049%=      5-min Rain = 0
KSC1 141340Z 19009KT 27/16 A3001 RMK A01 T02740159  RH  049%=      5-min Rain = 0
KSC1 141341Z 18009KT 27/16 A3001 RMK A01 T02740159  RH  049%=      5-min Rain = 0
KSC1 141342Z 18010KT 28/16 A3001 RMK A01 T02750159  RH  049%=      5-min Rain = 0
KSC1 141343Z 18011KT 28/16 A3001 RMK A01 T02760159  RH  049%=      5-min Rain = 0
KSC1 141344Z 18011KT 28/16 A3001 RMK A01 T02760159  RH  049%=      5-min Rain = 0
KSC1 141345Z 19011KT 28/16 A3001 RMK A01 T02760160  RH  049%=      5-min Rain = 0
KSC1 141346Z 18009G15KT 28/16 A3001 RMK A01 T02760160  RH  049%=      5-min Rain = 0
KSC1 141347Z 18010KT 28/16 A3001 RMK A01 T02770160  RH  049%=      5-min Rain = 0
KSC1 141348Z 19009KT 28/16 A3001 RMK A01 T02780160  RH  049%=      5-min Rain = 0
KSC1 141349Z 18006KT 28/16 A3001 RMK A01 T02780160  RH  049%=      5-min Rain = 0
KSC1 141350Z 19008G13KT 28/16 A3001 RMK A01 T02790161  RH  049%=      5-min Rain = 0
KSC1 141351Z 19008KT 28/16 A3001 RMK A01 T02790160  RH  048%=      5-min Rain = 0
KSC1 141352Z 19011G16KT 28/16 A3001 RMK A01 T02790160  RH  048%=      5-min Rain = 0
KSC1 141353Z 19012KT 28/16 A3001 RMK A01 T02790160  RH  048%=      5-min Rain = 0
KSC1 141354Z 19009KT 28/16 A3001 RMK A01 T02790160  RH  049%=      5-min Rain = 0
KSC1 141355Z 18010KT 28/16 A3001 RMK A01 T02790160  RH  048%=      5-min Rain = 0
KSC1 141356Z 19006KT 28/16 A3001 RMK A01 T02800161  RH  048%=      5-min Rain = 0
KSC1 141357Z 18009KT 28/16 A3001 RMK A01 T02800161  RH  048%=      5-min Rain = 0
KSC1 141358Z 19008KT 28/16 A3001 RMK A01 T02800161  RH  048%=      5-min Rain = 0
KSC1 141359Z 17008KT 28/16 A3001 RMK A01 T02810161  RH  048%=      5-min Rain = 0
KSC1 141400Z 19007KT 28/16 A3001 RMK A01 T02820161  RH  048%=      5-min Rain = 0
KSC1 141401Z 21006KT 28/16 A3001 RMK A01 T02830161  RH  048%=      5-min Rain = 0
KSC1 141402Z 18006G11KT 29/16 A3001 RMK A01 T02850162  RH  047%=      5-min Rain = 0
KSC1 141403Z 18010KT 29/16 A3001 RMK A01 T02870162  RH  047%=      5-min Rain = 0
KSC1 141404Z 18008KT 29/16 A3001 RMK A01 T02870161  RH  047%=      5-min Rain = 0
KSC1 141405Z 19008KT 29/16 A3001 RMK A01 T02870162  RH  047%=      5-min Rain = 0
KSC1 141406Z 19007KT 29/16 A3001 RMK A01 T02870162  RH  047%=      5-min Rain = 0
KSC1 141407Z 17010KT 29/16 A3001 RMK A01 T02870162  RH  047%=      5-min Rain = 0
KSC1 141408Z 17010KT 29/16 A3001 RMK A01 T02870161  RH  047%=      5-min Rain = 0
KSC1 141409Z 18007KT 29/16 A3001 RMK A01 T02870161  RH  046%=      5-min Rain = 0
KSC1 141410Z 17007KT 29/16 A3001 RMK A01 T02880162  RH  046%=      5-min Rain = 0
KSC1 141411Z 17010KT 29/16 A3001 RMK A01 T02890161  RH  046%=      5-min Rain = 0
KSC1 141412Z 18007KT 29/16 A3001 RMK A01 T02890161  RH  046%=      5-min Rain = 0
KSC1 141413Z 17008KT 29/16 A3001 RMK A01 T02890162  RH  046%=      5-min Rain = 0
KSC1 141414Z 18008KT 29/16 A3001 RMK A01 T02900161  RH  046%=      5-min Rain = 0
KSC1 141415Z 18010KT 29/16 A3002 RMK A01 T02900162  RH  046%=      5-min Rain = 0
KSC1 141416Z 18007KT 29/16 A3002 RMK A01 T02900162  RH  046%=      5-min Rain = 0
KSC1 141417Z 17007KT 29/16 A3002 RMK A01 T02900162  RH  046%=      5-min Rain = 0
KSC1 141418Z 17010KT 29/16 A3002 RMK A01 T02920162  RH  045%=      5-min Rain = 0
KSC1 141419Z 20005KT 29/16 A3002 RMK A01 T02920162  RH  045%=      5-min Rain = 0
KSC1 141420Z 19006KT 29/16 A3002 RMK A01 T02930163  RH  045%=      5-min Rain = 0
KSC1 141421Z 20007KT 30/16 A3002 RMK A01 T02950162  RH  045%=      5-min Rain = 0
KSC1 141422Z 22006KT 30/16 A3002 RMK A01 T02960162  RH  044%=      5-min Rain = 0
KSC1 141423Z 17008KT 30/16 A3002 RMK A01 T02960162  RH  044%=      5-min Rain = 0
KSC1 141424Z 18009KT 30/16 A3002 RMK A01 T02970162  RH  044%=      5-min Rain = 0
KSC1 141425Z 19010KT 30/16 A3002 RMK A01 T02980161  RH  044%=      5-min Rain = 0
KSC1 141426Z 19009KT 30/16 A3002 RMK A01 T02970161  RH  044%=      5-min Rain = 0
KSC1 141427Z 19010KT 30/16 A3002 RMK A01 T02980161  RH  044%=      5-min Rain = 0
KSC1 141428Z 18011KT 30/16 A3002 RMK A01 T02980161  RH  044%=      5-min Rain = 0
KSC1 141429Z 18009KT 30/16 A3002 RMK A01 T02970160  RH  044%=      5-min Rain = 0
KSC1 141430Z 18011KT 30/16 A3002 RMK A01 T02960160  RH  044%=      5-min Rain = 0
KSC1 141431Z 17010KT 30/16 A3002 RMK A01 T02970160  RH  044%=      5-min Rain = 0
KSC1 141432Z 18009KT 30/16 A3002 RMK A01 T02960160  RH  044%=      5-min Rain = 0
KSC1 141433Z 17010KT 30/16 A3002 RMK A01 T02960160  RH  044%=      5-min Rain = 0
KSC1 141434Z 18009KT 30/16 A3002 RMK A01 T02970161  RH  044%=      5-min Rain = 0
KSC1 141435Z 19008G13KT 30/16 A3002 RMK A01 T02980161  RH  043%=      5-min Rain = 0
KSC1 141436Z 21010KT 30/16 A3002 RMK A01 T02990160  RH  043%=      5-min Rain = 0
KSC1 141437Z 21009KT 30/16 A3002 RMK A01 T02990159  RH  043%=      5-min Rain = 0
KSC1 141438Z 20010KT 30/16 A3002 RMK A01 T02990160  RH  043%=      5-min Rain = 0
KSC1 141439Z 19011KT 30/16 A3002 RMK A01 T03010160  RH  043%=      5-min Rain = 0
KSC1 141440Z 20011KT 30/16 A3002 RMK A01 T03010160  RH  043%=      5-min Rain = 0
KSC1 141441Z 20009KT 30/16 A3002 RMK A01 T03010159  RH  042%=      5-min Rain = 0
KSC1 141442Z 21010KT 30/16 A3002 RMK A01 T03010159  RH  042%=      5-min Rain = 0
KSC1 141443Z 22009KT 30/16 A3002 RMK A01 T03020159  RH  042%=      5-min Rain = 0
KSC1 141444Z 23009KT 30/16 A3002 RMK A01 T03020159  RH  042%=      5-min Rain = 0
KSC1 141445Z 22008KT 30/16 A3002 RMK A01 T03010160  RH  042%=      5-min Rain = 0
KSC1 141446Z 21009KT 30/16 A3002 RMK A01 T03020160  RH  042%=      5-min Rain = 0
KSC1 141447Z 19009KT 31/16 A3002 RMK A01 T03050160  RH  042%=      5-min Rain = 0
KSC1 141448Z 20008G13KT 31/16 A3002 RMK A01 T03060160  RH  042%=      5-min Rain = 0
KSC1 141449Z 21008KT 31/16 A3002 RMK A01 T03060160  RH  041%=      5-min Rain = 0
KSC1 141450Z 20009KT 31/16 A3002 RMK A01 T03080161  RH  041%=      5-min Rain = 0
KSC1 141451Z 20009KT 31/16 A3002 RMK A01 T03090161  RH  041%=      5-min Rain = 0
KSC1 141452Z 21008KT 31/16 A3002 RMK A01 T03090160  RH  041%=      5-min Rain = 0
KSC1 141453Z 21010KT 31/16 A3002 RMK A01 T03110160  RH  040%=      5-min Rain = 0
KSC1 141454Z 21011KT 31/16 A3002 RMK A01 T03110160  RH  040%=      5-min Rain = 0
KSC1 141455Z 19008KT 31/16 A3002 RMK A01 T03100160  RH  040%=      5-min Rain = 0
KSC1 141456Z 19008KT 31/16 A3002 RMK A01 T03120160  RH  040%=      5-min Rain = 0
KSC1 141457Z 21008KT 31/16 A3002 RMK A01 T03120160  RH  040%=      5-min Rain = 0
KSC1 141458Z 21008G13KT 31/16 A3002 RMK A01 T03130160  RH  040%=      5-min Rain = 0
KSC1 141459Z 19007KT 31/16 A3002 RMK A01 T03140160  RH  040%=      5-min Rain = 0
KSC1 141500Z 20011G16KT 32/16 A3002 RMK A01 T03150160  RH  039%=      5-min Rain = 0
KSC1 141501Z 22010KT 32/16 A3002 RMK A01 T03150158  RH  039%=      5-min Rain = 0
KSC1 141502Z 22012KT 31/16 A3002 RMK A01 T03130158  RH  039%=      5-min Rain = 0
KSC1 141503Z 21011KT 31/16 A3002 RMK A01 T03120158  RH  039%=      5-min Rain = 0
KSC1 141504Z 21012KT 31/16 A3002 RMK A01 T03110159  RH  040%=      5-min Rain = 0
KSC1 141505Z 20008KT 31/16 A3002 RMK A01 T03120159  RH  039%=      5-min Rain = 0
KSC1 141506Z 21008KT 31/16 A3003 RMK A01 T03140160  RH  040%=      5-min Rain = 0
KSC1 141507Z 21008KT 32/16 A3003 RMK A01 T03160160  RH  039%=      5-min Rain = 0
KSC1 141508Z 20006KT 32/16 A3003 RMK A01 T03150160  RH  039%=      5-min Rain = 0
KSC1 141509Z 21007KT 32/16 A3003 RMK A01 T03150160  RH  039%=      5-min Rain = 0
KSC1 141510Z 23008KT 32/16 A3003 RMK A01 T03170160  RH  039%=      5-min Rain = 0
KSC1 141511Z 21008KT 32/16 A3003 RMK A01 T03180159  RH  039%=      5-min Rain = 0
KSC1 141512Z 22007KT 32/16 A3003 RMK A01 T03170159  RH  039%=      5-min Rain = 0
KSC1 141513Z 22007KT 32/16 A3003 RMK A01 T03150159  RH  039%=      5-min Rain = 0
KSC1 141514Z 22006KT 32/16 A3003 RMK A01 T03180160  RH  039%=      5-min Rain = 0
KSC1 141515Z 20007KT 32/16 A3003 RMK A01 T03220161  RH  038%=      5-min Rain = 0
KSC1 141516Z 20006KT 32/16 A3003 RMK A01 T03240161  RH  038%=      5-min Rain = 0
KSC1 141517Z 19007KT 33/16 A3002 RMK A01 T03270161  RH  037%=      5-min Rain = 0
KSC1 141518Z 20006KT 33/16 A3003 RMK A01 T03270161  RH  037%=      5-min Rain = 0
KSC1 141519Z 23012KT 33/16 A3003 RMK A01 T03270161  RH  037%=      5-min Rain = 0
KSC1 141520Z 21012KT 33/16 A3002 RMK A01 T03250158  RH  037%=      5-min Rain = 0
KSC1 141521Z 20008KT 32/16 A3003 RMK A01 T03220158  RH  037%=      5-min Rain = 0
KSC1 141522Z 20012KT 32/16 A3002 RMK A01 T03220158  RH  037%=      5-min Rain = 0
KSC1 141523Z 21008KT 32/16 A3002 RMK A01 T03230157  RH  037%=      5-min Rain = 0
KSC1 141524Z 20008G13KT 32/16 A3002 RMK A01 T03240158  RH  037%=      5-min Rain = 0
KSC1 141525Z 21009G14KT 33/16 A3002 RMK A01 T03260159  RH  037%=      5-min Rain = 0
KSC1 141526Z 21010KT 33/16 A3002 RMK A01 T03260159  RH  037%=      5-min Rain = 0
KSC1 141527Z 20010KT 33/16 A3002 RMK A01 T03250159  RH  037%=      5-min Rain = 0
KSC1 141528Z 19009KT 32/16 A3002 RMK A01 T03240159  RH  037%=      5-min Rain = 0
KSC1 141529Z 19009KT 33/16 A3002 RMK A01 T03250159  RH  037%=      5-min Rain = 0
KSC1 141530Z 22009KT 33/16 A3002 RMK A01 T03250159  RH  037%=      5-min Rain = 0
KSC1 141531Z 22012G17KT 33/16 A3002 RMK A01 T03250157  RH  036%=      5-min Rain = 0
KSC1 141532Z 19010KT 33/16 A3002 RMK A01 T03250156  RH  036%=      5-min Rain = 0
KSC1 141533Z 21010KT 33/16 A3002 RMK A01 T03250157  RH  037%=      5-min Rain = 0
KSC1 141534Z 21009KT 33/16 A3002 RMK A01 T03250158  RH  037%=      5-min Rain = 0
KSC1 141535Z 21007KT 33/16 A3002 RMK A01 T03250157  RH  036%=      5-min Rain = 0
KSC1 141536Z 23006G12KT 33/16 A3002 RMK A01 T03270158  RH  036%=      5-min Rain = 0
KSC1 141537Z 22007G12KT 33/16 A3002 RMK A01 T03310158  RH  035%=      5-min Rain = 0
KSC1 141538Z 23006KT 33/16 A3002 RMK A01 T03340158  RH  035%=      5-min Rain = 0
KSC1 141539Z 24007KT 33/16 A3002 RMK A01 T03340157  RH  035%=      5-min Rain = 0
KSC1 141540Z 22008KT 33/16 A3002 RMK A01 T03320156  RH  035%=      5-min Rain = 0
KSC1 141541Z 22011KT 33/16 A3002 RMK A01 T03310157  RH  035%=      5-min Rain = 0
KSC1 141542Z 21010KT 33/15 A3002 RMK A01 T03310154  RH  035%=      5-min Rain = 0
KSC1 141543Z 20007KT 33/15 A3002 RMK A01 T03300154  RH  035%=      5-min Rain = 0
KSC1 141544Z 21010KT 33/15 A3002 RMK A01 T03310154  RH  035%=      5-min Rain = 0
KSC1 141545Z 21011KT 33/15 A3002 RMK A01 T03320154  RH  034%=      5-min Rain = 0
KSC1 141546Z 22011KT 33/15 A3002 RMK A01 T03310153  RH  034%=      5-min Rain = 0
KSC1 141547Z 22010KT 33/15 A3002 RMK A01 T03310154  RH  034%=      5-min Rain = 0
KSC1 141548Z 23008KT 33/15 A3002 RMK A01 T03300154  RH  035%=      5-min Rain = 0
KSC1 141549Z 22008KT 33/16 A3002 RMK A01 T03300155  RH  035%=      5-min Rain = 0
KSC1 141550Z 25009G15KT 33/16 A3002 RMK A01 T03320157  RH  035%=      5-min Rain = 0
KSC1 141551Z 24010KT 33/16 A3002 RMK A01 T03340157  RH  034%=      5-min Rain = 0
KSC1 141552Z 21011KT 33/16 A3002 RMK A01 T03330155  RH  034%=      5-min Rain = 0
KSC1 141553Z 20014KT 33/15 A3002 RMK A01 T03330148  RH  033%=      5-min Rain = 0
KSC1 141554Z 22011KT 33/15 A3002 RMK A01 T03320146  RH  033%=      5-min Rain = 0
KSC1 141555Z 22010KT 33/15 A3002 RMK A01 T03300146  RH  033%=      5-min Rain = 0
KSC1 141556Z 23008KT 33/15 A3002 RMK A01 T03330146  RH  032%=      5-min Rain = 0
KSC1 141557Z 21010KT 34/15 A3002 RMK A01 T03370148  RH  032%=      5-min Rain = 0
KSC1 141558Z 20010KT 34/15 A3002 RMK A01 T03390151  RH  032%=      5-min Rain = 0
KSC1 141559Z 20012KT 34/15 A3002 RMK A01 T03400152  RH  032%=      5-min Rain = 0
KSC1 141600Z 19013KT 34/15 A3002 RMK A01 T03390149  RH  032%=      5-min Rain = 0
KSC1 141601Z 19013KT 34/15 A3002 RMK A01 T03380147  RH  032%=      5-min Rain = 0
KSC1 141602Z 20010KT 34/15 A3002 RMK A01 T03380148  RH  032%=      5-min Rain = 0
KSC1 141603Z 20009KT 34/15 A3002 RMK A01 T03390149  RH  032%=      5-min Rain = 0
KSC1 141604Z 20012KT 34/15 A3002 RMK A01 T03380148  RH  032%=      5-min Rain = 0
KSC1 141605Z 19011KT 34/15 A3002 RMK A01 T03370145  RH  031%=      5-min Rain = 0
KSC1 141606Z 20013KT 34/15 A3002 RMK A01 T03370146  RH  032%=      5-min Rain = 0
KSC1 141607Z 19009KT 34/15 A3002 RMK A01 T03380148  RH  032%=      5-min Rain = 0
KSC1 141608Z 19009KT 34/15 A3002 RMK A01 T03410148  RH  031%=      5-min Rain = 0
KSC1 141609Z 19013KT 34/15 A3002 RMK A01 T03410147  RH  031%=      5-min Rain = 0
KSC1 141610Z 21011KT 34/15 A3002 RMK A01 T03400146  RH  031%=      5-min Rain = 0
KSC1 141611Z 23012KT 34/15 A3002 RMK A01 T03380147  RH  032%=      5-min Rain = 0
KSC1 141612Z 22009KT 34/15 A3002 RMK A01 T03380149  RH  032%=      5-min Rain = 0
KSC1 141613Z 21007KT 34/15 A3002 RMK A01 T03400149  RH  032%=      5-min Rain = 0
KSC1 141614Z 22009KT 34/15 A3002 RMK A01 T03420148  RH  031%=      5-min Rain = 0
KSC1 141615Z 22011KT 34/15 A3002 RMK A01 T03440145  RH  030%=      5-min Rain = 0
KSC1 141616Z 23011KT 34/14 A3002 RMK A01 T03440144  RH  030%=      5-min Rain = 0
KSC1 141617Z 22008KT 34/15 A3002 RMK A01 T03430146  RH  031%=      5-min Rain = 0
KSC1 141618Z 21009KT 35/15 A3002 RMK A01 T03450147  RH  030%=      5-min Rain = 0
KSC1 141619Z 20008KT 34/15 A3002 RMK A01 T03440146  RH  031%=      5-min Rain = 0
KSC1 141620Z 20010G15KT 34/15 A3002 RMK A01 T03430146  RH  031%=      5-min Rain = 0
KSC1 141621Z 19011KT 34/15 A3002 RMK A01 T03430145  RH  030%=      5-min Rain = 0
KSC1 141622Z 19010KT 34/15 A3002 RMK A01 T03440148  RH  031%=      5-min Rain = 0
KSC1 141623Z 19008KT 34/15 A3002 RMK A01 T03440149  RH  031%=      5-min Rain = 0
KSC1 141624Z 19009KT 34/15 A3002 RMK A01 T03430148  RH  031%=      5-min Rain = 0
KSC1 141625Z 18008KT 34/15 A3002 RMK A01 T03440145  RH  030%=      5-min Rain = 0
KSC1 141626Z 20012KT 35/14 A3002 RMK A01 T03450144  RH  030%=      5-min Rain = 0
KSC1 141627Z 19011KT 35/14 A3002 RMK A01 T03480143  RH  029%=      5-min Rain = 0
KSC1 141628Z 19008KT 35/14 A3002 RMK A01 T03470143  RH  030%=      5-min Rain = 0
KSC1 141629Z 22011KT 35/14 A3002 RMK A01 T03470143  RH  029%=      5-min Rain = 0
KSC1 141630Z 21011KT 35/14 A3002 RMK A01 T03490141  RH  029%=      5-min Rain = 0
KSC1 141631Z 23011KT 35/14 A3002 RMK A01 T03500142  RH  029%=      5-min Rain = 0
KSC1 141632Z 20008KT 35/14 A3002 RMK A01 T03480144  RH  029%=      5-min Rain = 0
KSC1 141633Z 20009KT 35/14 A3002 RMK A01 T03470144  RH  030%=      5-min Rain = 0
KSC1 141634Z 21008G13KT 35/14 A3002 RMK A01 T03510140  RH  028%=      5-min Rain = 0
KSC1 141635Z 19013KT 35/14 A3002 RMK A01 T03540135  RH  027%=      5-min Rain = 0
KSC1 141636Z 19015KT 35/13 A3002 RMK A01 T03540132  RH  026%=      5-min Rain = 0
KSC1 141637Z 20012KT 35/13 A3002 RMK A01 T03530133  RH  027%=      5-min Rain = 0
KSC1 141638Z 18010KT 35/14 A3002 RMK A01 T03530135  RH  027%=      5-min Rain = 0
KSC1 141639Z 21011KT 36/14 A3002 RMK A01 T03560137  RH  027%=      5-min Rain = 0
KSC1 141640Z 20009KT 36/14 A3002 RMK A01 T03560138  RH  027%=      5-min Rain = 0
KSC1 141641Z 23010KT 35/14 A3002 RMK A01 T03530138  RH  028%=      5-min Rain = 0
KSC1 141642Z 21008KT 35/14 A3002 RMK A01 T03530137  RH  028%=      5-min Rain = 0
KSC1 141643Z 19013KT 36/14 A3002 RMK A01 T03550137  RH  027%=      5-min Rain = 0
KSC1 141644Z 19010KT 36/14 A3002 RMK A01 T03550138  RH  027%=      5-min Rain = 0
KSC1 141645Z 19008KT 35/14 A3002 RMK A01 T03540139  RH  028%=      5-min Rain = 0
KSC1 141646Z 21007KT 36/13 A3002 RMK A01 T03560133  RH  026%=      5-min Rain = 0
KSC1 141647Z 22007KT 36/13 A3002 RMK A01 T03580128  RH  025%=      5-min Rain = 0
KSC1 141648Z 23008KT 36/13 A3002 RMK A01 T03580134  RH  026%=      5-min Rain = 0
KSC1 141649Z 24009KT 36/14 A3002 RMK A01 T03580135  RH  026%=      5-min Rain = 0
KSC1 141650Z 22008KT 36/14 A3002 RMK A01 T03590137  RH  027%=      5-min Rain = 0
KSC1 141651Z 20009G14KT 36/14 A3002 RMK A01 T03600138  RH  027%=      5-min Rain = 0
KSC1 141652Z 22010KT 36/13 A3002 RMK A01 T03600134  RH  026%=      5-min Rain = 0
KSC1 141653Z 21008KT 36/13 A3002 RMK A01 T03620128  RH  025%=      5-min Rain = 0
KSC1 141654Z 24007KT 37/13 A3002 RMK A01 T03650129  RH  024%=      5-min Rain = 0
KSC1 141655Z 23009G14KT 37/13 A3002 RMK A01 T03660128  RH  024%=      5-min Rain = 0
KSC1 141656Z 21008KT 37/13 A3002 RMK A01 T03660127  RH  024%=      5-min Rain = 0
KSC1 141657Z 22009KT 37/13 A3002 RMK A01 T03670127  RH  024%=      5-min Rain = 0
KSC1 141658Z 22012KT 37/13 A3002 RMK A01 T03660132  RH  025%=      5-min Rain = 0
KSC1 141659Z 19013KT 37/14 A3002 RMK A01 T03650136  RH  026%=      5-min Rain = 0
KSC1 141700Z 19010KT 36/14 A3002 RMK A01 T03610136  RH  026%=      5-min Rain = 0
KSC1 141701Z 18014KT 36/14 A3002 RMK A01 T03600136  RH  026%=      5-min Rain = 0
KSC1 141702Z 18011KT 36/14 A3002 RMK A01 T03600136  RH  026%=      5-min Rain = 0
KSC1 141703Z 17010KT 36/14 A3002 RMK A01 T03600136  RH  026%=      5-min Rain = 0
KSC1 141704Z 18008G13KT 36/14 A3002 RMK A01 T03620139  RH  026%=      5-min Rain = 0
KSC1 141705Z 20009KT 36/13 A3002 RMK A01 T03630129  RH  025%=      5-min Rain = 0
KSC1 141706Z 22008KT 36/13 A3002 RMK A01 T03620126  RH  024%=      5-min Rain = 0
KSC1 141707Z 21007KT 36/13 A3002 RMK A01 T03620126  RH  024%=      5-min Rain = 0
KSC1 141708Z 21008KT 37/13 A3002 RMK A01 T03650131  RH  025%=      5-min Rain = 0
KSC1 141709Z 20012G17KT 37/13 A3002 RMK A01 T03660131  RH  024%=      5-min Rain = 0
KSC1 141710Z 18012KT 37/13 A3002 RMK A01 T03660129  RH  024%=      5-min Rain = 0
KSC1 141711Z 19011KT 37/13 A3002 RMK A01 T03660127  RH  024%=      5-min Rain = 0
KSC1 141712Z 18011KT 37/13 A3001 RMK A01 T03670125  RH  023%=      5-min Rain = 0
KSC1 141713Z 20007KT 37/13 A3002 RMK A01 T03670128  RH  024%=      5-min Rain = 0
KSC1 141714Z 18009KT 37/13 A3001 RMK A01 T03690131  RH  024%=      5-min Rain = 0
KSC1 141715Z 19008G13KT 37/13 A3001 RMK A01 T03700131  RH  024%=      5-min Rain = 0
KSC1 141716Z 18009KT 37/13 A3001 RMK A01 T03710130  RH  024%=      5-min Rain = 0
KSC1 141717Z 21008G14KT 37/13 A3001 RMK A01 T03720129  RH  023%=      5-min Rain = 0
KSC1 141718Z 19007KT 38/13 A3002 RMK A01 T03750129  RH  023%=      5-min Rain = 0
KSC1 141719Z 18005KT 38/13 A3001 RMK A01 T03770127  RH  022%=      5-min Rain = 0
KSC1 141720Z 21005KT 38/13 A3001 RMK A01 T03770127  RH  023%=      5-min Rain = 0
KSC1 141721Z 24006KT 38/13 A3001 RMK A01 T03790128  RH  022%=      5-min Rain = 0
KSC1 141722Z 20009KT 38/13 A3001 RMK A01 T03780129  RH  023%=      5-min Rain = 0
KSC1 141723Z 19009KT 38/13 A3001 RMK A01 T03780131  RH  023%=      5-min Rain = 0
KSC1 141724Z 20011KT 38/13 A3001 RMK A01 T03770131  RH  023%=      5-min Rain = 0
KSC1 141725Z 19008KT 37/13 A3001 RMK A01 T03730128  RH  023%=      5-min Rain = 0
KSC1 141726Z 17006KT 37/13 A3001 RMK A01 T03690126  RH  023%=      5-min Rain = 0
KSC1 141727Z 17006KT 37/13 A3001 RMK A01 T03700125  RH  023%=      5-min Rain = 0
KSC1 141728Z 20007G12KT 37/13 A3001 RMK A01 T03720125  RH  023%=      5-min Rain = 0
KSC1 141729Z 19011KT 37/13 A3001 RMK A01 T03740132  RH  024%=      5-min Rain = 0
KSC1 141730Z 18008KT 37/13 A3001 RMK A01 T03720134  RH  024%=      5-min Rain = 0
KSC1 141731Z 20009KT 37/14 A3001 RMK A01 T03730136  RH  024%=      5-min Rain = 0
KSC1 141732Z 19011KT 38/13 A3001 RMK A01 T03760133  RH  024%=      5-min Rain = 0
KSC1 141733Z 20010KT 38/13 A3001 RMK A01 T03770130  RH  023%=      5-min Rain = 0
KSC1 141734Z 19008KT 38/13 A3001 RMK A01 T03760127  RH  023%=      5-min Rain = 0
KSC1 141735Z 17007KT 38/13 A3001 RMK A01 T03750126  RH  023%=      5-min Rain = 0
KSC1 141736Z 17009KT 38/13 A3001 RMK A01 T03760127  RH  023%=      5-min Rain = 0
KSC1 141737Z 16009KT 38/13 A30 RMK A01 T03750126  RH  023%=      5-min Rain = 0
KSC1 141738Z 20009G14KT 38/13 A30 RMK A01 T03750126  RH  023%=      5-min Rain = 0
KSC1 141739Z 20013KT 38/12 A30 RMK A01 T03770118  RH  021%=      5-min Rain = 0
KSC1 141740Z 22010KT 38/12 A30 RMK A01 T03770116  RH  021%=      5-min Rain = 0
KSC1 141741Z 21010KT 38/12 A30 RMK A01 T03780115  RH  021%=      5-min Rain = 0
KSC1 141742Z 19009KT 38/12 A30 RMK A01 T03780115  RH  021%=      5-min Rain = 0
KSC1 141743Z 23009KT 38/11 A30 RMK A01 T03770113  RH  021%=      5-min Rain = 0
KSC1 141744Z 25008KT 38/12 A30 RMK A01 T03770117  RH  021%=      5-min Rain = 0
KSC1 141745Z 23007KT 38/12 A30 RMK A01 T03790120  RH  021%=      5-min Rain = 0
KSC1 141746Z 25007KT 38/12 A30 RMK A01 T03810119  RH  021%=      5-min Rain = 0
KSC1 141747Z 25006KT 38/12 A30 RMK A01 T03790117  RH  021%=      5-min Rain = 0
KSC1 141748Z 22005KT 38/12 A30 RMK A01 T03750118  RH  021%=      5-min Rain = 0
KSC1 141749Z 19006KT 38/12 A30 RMK A01 T03750121  RH  022%=      5-min Rain = 0
KSC1 141750Z 20007KT 38/12 A30 RMK A01 T03780120  RH  021%=      5-min Rain = 0
KSC1 141751Z 17009KT 38/12 A30 RMK A01 T03780121  RH  022%=      5-min Rain = 0
KSC1 141752Z 19005KT 38/12 A30 RMK A01 T03790124  RH  022%=      5-min Rain = 0
KSC1 141753Z 19005KT 38/12 A30 RMK A01 T03830124  RH  021%=      5-min Rain = 0
KSC1 141754Z 18005KT 39/12 A30 RMK A01 T03860124  RH  021%=      5-min Rain = 0
KSC1 141755Z 23006KT 39/12 A30 RMK A01 T03890123  RH  021%=      5-min Rain = 0
KSC1 141756Z 24011G17KT 39/12 A30 RMK A01 T03900115  RH  019%=      5-min Rain = 0
KSC1 141757Z 24005G10KT 39/12 A30 RMK A01 T03880115  RH  020%=      5-min Rain = 0
KSC1 141758Z 24006KT 39/12 A2999 RMK A01 T03870118  RH  020%=      5-min Rain = 0
KSC1 141759Z 23006KT 39/12 A2999 RMK A01 T03870122  RH  021%=      5-min Rain = 0
KSC1 141800Z 17007KT 39/12 A2999 RMK A01 T03880122  RH  021%=      5-min Rain = 0
KSC1 141801Z 15005KT 39/12 A2999 RMK A01 T03890118  RH  020%=      5-min Rain = 0
KSC1 141802Z 18004KT 39/12 A2999 RMK A01 T03880118  RH  020%=      5-min Rain = 0
KSC1 141803Z 20008KT 39/12 A2999 RMK A01 T03860118  RH  020%=      5-min Rain = 0
KSC1 141804Z 20010KT 39/12 A2999 RMK A01 T03860118  RH  020%=      5-min Rain = 0
KSC1 141805Z 20011KT 39/12 A2999 RMK A01 T03850120  RH  021%=      5-min Rain = 0
KSC1 141806Z 20009KT 39/12 A2999 RMK A01 T03850121  RH  021%=      5-min Rain = 0
KSC1 141807Z 20011KT 39/12 A2999 RMK A01 T03850124  RH  021%=      5-min Rain = 0
KSC1 141808Z 21006KT 38/12 A2999 RMK A01 T03840124  RH  021%=      5-min Rain = 0
KSC1 141809Z 20010KT 38/12 A2999 RMK A01 T03840124  RH  021%=      5-min Rain = 0
KSC1 141810Z 20008KT 38/12 A2999 RMK A01 T03830122  RH  021%=      5-min Rain = 0
KSC1 141811Z 24009KT 38/12 A2999 RMK A01 T03840117  RH  020%=      5-min Rain = 0
KSC1 141812Z 25011KT 39/11 A2999 RMK A01 T03870108  RH  019%=      5-min Rain = 0
KSC1 141813Z 24006KT 39/10 A2999 RMK A01 T03870103  RH  018%=      5-min Rain = 0
KSC1 141814Z 21007KT 39/11 A2999 RMK A01 T03920107  RH  018%=      5-min Rain = 0
KSC1 141815Z 21006KT 39/11 A2999 RMK A01 T03930110  RH  018%=      5-min Rain = 0
KSC1 141816Z 21006KT 39/11 A2999 RMK A01 T03890112  RH  019%=      5-min Rain = 0
KSC1 141817Z 23008KT 39/11 A2999 RMK A01 T03900109  RH  019%=      5-min Rain = 0
KSC1 141818Z 24008KT 39/10 A2999 RMK A01 T03930102  RH  017%=      5-min Rain = 0
KSC1 141819Z 23009KT 39/10 A2999 RMK A01 T03910099  RH  017%=      5-min Rain = 0
KSC1 141820Z 21007KT 39/11 A2999 RMK A01 T03900106  RH  018%=      5-min Rain = 0
KSC1 141821Z 20009KT 39/11 A2999 RMK A01 T03880112  RH  019%=      5-min Rain = 0
KSC1 141822Z 20008KT 39/12 A2999 RMK A01 T03880117  RH  020%=      5-min Rain = 0
KSC1 141823Z 18007KT 39/12 A2999 RMK A01 T03880118  RH  020%=      5-min Rain = 0
KSC1 141824Z 17008G13KT 39/12 A2999 RMK A01 T03870119  RH  020%=      5-min Rain = 0
KSC1 141825Z 16012KT 39/12 A2999 RMK A01 T03880119  RH  020%=      5-min Rain = 0
KSC1 141826Z 17011KT 39/12 A2998 RMK A01 T03900117  RH  020%=      5-min Rain = 0
KSC1 141827Z 17012KT 39/12 A2998 RMK A01 T03900116  RH  020%=      5-min Rain = 0
KSC1 141828Z 19009G14KT 39/11 A2999 RMK A01 T03890113  RH  019%=      5-min Rain = 0
KSC1 141829Z 17008KT 39/12 A2999 RMK A01 T03870115  RH  020%=      5-min Rain = 0
KSC1 141830Z 20008KT 39/11 A2999 RMK A01 T03880113  RH  019%=      5-min Rain = 0
KSC1 141831Z 21010G15KT 39/11 A2998 RMK A01 T03910107  RH  018%=      5-min Rain = 0
KSC1 141832Z 20011KT 40/10 A2998 RMK A01 T03950097  RH  017%=      5-min Rain = 0
KSC1 141833Z 22010KT 40/09 A2999 RMK A01 T03960092  RH  016%=      5-min Rain = 0
KSC1 141834Z 23006G12KT 39/09 A2999 RMK A01 T03940089  RH  016%=      5-min Rain = 0
KSC1 141835Z 24009KT 40/10 A2998 RMK A01 T03950100  RH  017%=      5-min Rain = 0
KSC1 141836Z 23007KT 39/11 A2998 RMK A01 T03920105  RH  018%=      5-min Rain = 0
KSC1 141837Z 25005KT 39/11 A2998 RMK A01 T03910105  RH  018%=      5-min Rain = 0
KSC1 141838Z 24002KT 39/11 A2998 RMK A01 T03910105  RH  018%=      5-min Rain = 0
KSC1 141839Z 35001KT 39/11 A2998 RMK A01 T03910106  RH  018%=      5-min Rain = 0
KSC1 141840Z 17002KT 39/11 A2998 RMK A01 T03920106  RH  018%=      5-min Rain = 0
KSC1 141841Z 26006KT 40/11 A2998 RMK A01 T03950105  RH  018%=      5-min Rain = 0
KSC1 141842Z 24006KT 40/10 A2998 RMK A01 T03960101  RH  017%=      5-min Rain = 0
KSC1 141843Z 24006KT 40/11 A2998 RMK A01 T03970105  RH  017%=      5-min Rain = 0
KSC1 141844Z 22008KT 40/10 A2998 RMK A01 T03980104  RH  017%=      5-min Rain = 0
KSC1 141845Z 21011KT 40/10 A2998 RMK A01 T03980097  RH  016%=      5-min Rain = 0
KSC1 141846Z 19010KT 40/09 A2998 RMK A01 T03980090  RH  016%=      5-min Rain = 0
KSC1 141847Z 20010KT 40/09 A2998 RMK A01 T03990088  RH  015%=      5-min Rain = 0
KSC1 141848Z 20010KT 40/09 A2998 RMK A01 T03980089  RH  016%=      5-min Rain = 0
KSC1 141849Z 21010KT 40/09 A2998 RMK A01 T03950092  RH  016%=      5-min Rain = 0
KSC1 141850Z 21007KT 40/10 A2998 RMK A01 T03950096  RH  017%=      5-min Rain = 0
KSC1 141851Z 21005KT 40/10 A2998 RMK A01 T03960100  RH  017%=      5-min Rain = 0
KSC1 141852Z 21005KT 40/10 A2998 RMK A01 T03970100  RH  017%=      5-min Rain = 0
KSC1 141853Z 17005KT 40/10 A2998 RMK A01 T03950100  RH  017%=      5-min Rain = 0
KSC1 141854Z 15007KT 40/10 A2997 RMK A01 T03970101  RH  017%=      5-min Rain = 0
KSC1 141855Z 17007KT 40/10 A2997 RMK A01 T03980100  RH  017%=      5-min Rain = 0
KSC1 141856Z 21009KT 40/10 A2998 RMK A01 T03990100  RH  017%=      5-min Rain = 0
KSC1 141857Z 22011KT 40/09 A2997 RMK A01 T04000094  RH  016%=      5-min Rain = 0
KSC1 141858Z 18011KT 40/09 A2997 RMK A01 T04010092  RH  016%=      5-min Rain = 0
KSC1 141859Z 19010KT 40/09 A2997 RMK A01 T04000087  RH  015%=      5-min Rain = 0
KSC1 141900Z 16007KT 40/09 A2997 RMK A01 T03970086  RH  015%=      5-min Rain = 0
KSC1 141901Z 19007KT 40/09 A2997 RMK A01 T03970088  RH  016%=      5-min Rain = 0
KSC1 141902Z 21007KT 40/09 A2997 RMK A01 T04020091  RH  015%=      5-min Rain = 0
KSC1 141903Z 22007KT 41/09 A2997 RMK A01 T04060094  RH  015%=      5-min Rain = 0
KSC1 141904Z 21004KT 41/09 A2997 RMK A01 T04070093  RH  015%=      5-min Rain = 0
KSC1 141905Z 21007G16KT 41/09 A2997 RMK A01 T04050094  RH  016%=      5-min Rain = 0
KSC1 141906Z 21012KT 40/09 A2997 RMK A01 T04040091  RH  015%=      5-min Rain = 0
KSC1 141907Z 22009G14KT 40/09 A2997 RMK A01 T04040089  RH  015%=      5-min Rain = 0
KSC1 141908Z 21009KT 41/09 A2997 RMK A01 T04050086  RH  015%=      5-min Rain = 0
KSC1 141909Z 22007KT 40/08 A2997 RMK A01 T04040084  RH  015%=      5-min Rain = 0
KSC1 141910Z 22005KT 40/09 A2997 RMK A01 T04030085  RH  015%=      5-min Rain = 0
KSC1 141911Z 19006KT 41/08 A2997 RMK A01 T04060081  RH  014%=      5-min Rain = 0
KSC1 141912Z 19005KT 40/08 A2997 RMK A01 T04030079  RH  014%=      5-min Rain = 0
KSC1 141913Z 18002KT 40/09 A2997 RMK A01 T03990088  RH  015%=      5-min Rain = 0
KSC1 141914Z 02002KT 40/09 A2996 RMK A01 T03970087  RH  016%=      5-min Rain = 0
KSC1 141915Z 27005KT 40/09 A2997 RMK A01 T03950088  RH  016%=      5-min Rain = 0
KSC1 141916Z 25011KT 40/09 A2997 RMK A01 T03970088  RH  016%=      5-min Rain = 0
KSC1 141917Z 25010KT 40/09 A2996 RMK A01 T04010085  RH  015%=      5-min Rain = 0
KSC1 141918Z 26011KT 40/08 A2996 RMK A01 T04040084  RH  015%=      5-min Rain = 0
KSC1 141919Z 26011KT 40/08 A2996 RMK A01 T04030082  RH  014%=      5-min Rain = 0
KSC1 141920Z 27009KT 40/08 A2996 RMK A01 T04010083  RH  015%=      5-min Rain = 0
KSC1 141921Z 29010G15KT 40/08 A2996 RMK A01 T03980081  RH  015%=      5-min Rain = 0
KSC1 141922Z 23011KT 40/09 A2996 RMK A01 T04010086  RH  015%=      5-min Rain = 0
KSC1 141923Z 20007KT 40/09 A2996 RMK A01 T04030091  RH  015%=      5-min Rain = 0
KSC1 141924Z 19010KT 40/10 A2996 RMK A01 T04040095  RH  016%=      5-min Rain = 0
KSC1 141925Z 20007KT 41/09 A2996 RMK A01 T04050092  RH  015%=      5-min Rain = 0
KSC1 141926Z 17006KT 40/09 A2996 RMK A01 T04030092  RH  015%=      5-min Rain = 0
KSC1 141927Z 17004KT 40/09 A2996 RMK A01 T04010092  RH  016%=      5-min Rain = 0
KSC1 141928Z 20006KT 40/10 A2996 RMK A01 T03990096  RH  016%=      5-min Rain = 0
KSC1 141929Z 18007G14KT 40/10 A2996 RMK A01 T04010099  RH  016%=      5-min Rain = 0
KSC1 141930Z 15008KT 41/10 A2996 RMK A01 T04050098  RH  016%=      5-min Rain = 0
KSC1 141931Z 17005KT 41/10 A2996 RMK A01 T04050098  RH  016%=      5-min Rain = 0
KSC1 141932Z 15007KT 40/10 A2996 RMK A01 T04040097  RH  016%=      5-min Rain = 0
KSC1 141933Z 21009KT 41/10 A2995 RMK A01 T04070096  RH  016%=      5-min Rain = 0
KSC1 141934Z 24008KT 41/08 A2995 RMK A01 T04110081  RH  014%=      5-min Rain = 0
KSC1 141935Z 23009KT 41/07 A2995 RMK A01 T04140068  RH  012%=      5-min Rain = 0
KSC1 141936Z 23011KT 41/07 A2995 RMK A01 T04130066  RH  012%=      5-min Rain = 0
KSC1 141937Z 23007KT 41/07 A2995 RMK A01 T04100074  RH  013%=      5-min Rain = 0
KSC1 141938Z 21008KT 41/08 A2995 RMK A01 T04110076  RH  013%=      5-min Rain = 0
KSC1 141939Z 20009KT 41/08 A2995 RMK A01 T04110075  RH  013%=      5-min Rain = 0
KSC1 141940Z 24007KT 41/07 A2995 RMK A01 T04100074  RH  013%=      5-min Rain = 0
KSC1 141941Z 25005KT 41/08 A2995 RMK A01 T04110078  RH  013%=      5-min Rain = 0
KSC1 141942Z 26003KT 41/08 A2995 RMK A01 T04110075  RH  013%=      5-min Rain = 0
KSC1 141943Z 24005KT 41/08 A2995 RMK A01 T04100075  RH  013%=      5-min Rain = 0
KSC1 141944Z 26004KT 41/08 A2995 RMK A01 T04080077  RH  014%=      5-min Rain = 0
KSC1 141945Z 18003KT 41/08 A2995 RMK A01 T04060078  RH  014%=      5-min Rain = 0
KSC1 141946Z 20005KT 41/08 A2995 RMK A01 T04080084  RH  014%=      5-min Rain = 0
KSC1 141947Z 26007KT 41/08 A2995 RMK A01 T04120083  RH  014%=      5-min Rain = 0
KSC1 141948Z 25009KT 41/08 A2995 RMK A01 T04120077  RH  013%=      5-min Rain = 0
KSC1 141949Z 26011KT 41/07 A2995 RMK A01 T04120066  RH  012%=      5-min Rain = 0
KSC1 141950Z 26009KT 41/07 A2995 RMK A01 T04140069  RH  013%=      5-min Rain = 0
KSC1 141951Z 26009KT 41/07 A2995 RMK A01 T04120068  RH  013%=      5-min Rain = 0
KSC1 141952Z 26010KT 41/07 A2995 RMK A01 T04100065  RH  012%=      5-min Rain = 0
KSC1 141953Z 26008KT 41/07 A2995 RMK A01 T04090065  RH  013%=      5-min Rain = 0
KSC1 141954Z 23006KT 41/06 A2995 RMK A01 T04080064  RH  012%=      5-min Rain = 0
KSC1 141955Z 26007KT 41/06 A2995 RMK A01 T04090064  RH  012%=      5-min Rain = 0
KSC1 141956Z 26008KT 41/06 A2995 RMK A01 T04130062  RH  012%=      5-min Rain = 0
KSC1 141957Z 29008KT 41/06 A2994 RMK A01 T04140062  RH  012%=      5-min Rain = 0
KSC1 141958Z 30004KT 41/06 A2994 RMK A01 T04130062  RH  012%=      5-min Rain = 0
KSC1 141959Z 24005KT 41/06 A2994 RMK A01 T04110061  RH  012%=      5-min Rain = 0
KSC1 142000Z 20009KT 42/06 A2994 RMK A01 T04150063  RH  012%=      5-min Rain = 0
KSC1 142001Z 21008KT 42/07 A2995 RMK A01 T04170067  RH  012%=      5-min Rain = 0
KSC1 142002Z 21006KT 41/07 A2994 RMK A01 T04140067  RH  012%=      5-min Rain = 0
KSC1 142003Z 20004KT 41/07 A2994 RMK A01 T04110067  RH  013%=      5-min Rain = 0
KSC1 142004Z 16002KT 41/07 A2994 RMK A01 T04100066  RH  012%=      5-min Rain = 0
KSC1 142005Z 10002G7KT 41/07 A2994 RMK A01 T04100065  RH  012%=      5-min Rain = 0
KSC1 142006Z 14006KT 41/07 A2994 RMK A01 T04110065  RH  012%=      5-min Rain = 0
KSC1 142007Z 15003KT 41/07 A2994 RMK A01 T04120066  RH  012%=      5-min Rain = 0
KSC1 142008Z 17002KT 41/07 A2994 RMK A01 T04120066  RH  012%=      5-min Rain = 0
KSC1 142009Z 23007KT 41/07 A2994 RMK A01 T04130067  RH  012%=      5-min Rain = 0
KSC1 142010Z 25005KT 41/07 A2994 RMK A01 T04130069  RH  013%=      5-min Rain = 0
KSC1 142011Z 22004KT 41/07 A2994 RMK A01 T04110070  RH  013%=      5-min Rain = 0
KSC1 142012Z 25008KT 41/07 A2994 RMK A01 T04130067  RH  012%=      5-min Rain = 0
KSC1 142013Z 23005KT 42/07 A2994 RMK A01 T04180065  RH  012%=      5-min Rain = 0
KSC1 142014Z 25006KT 42/06 A2994 RMK A01 T04220063  RH  012%=      5-min Rain = 0
KSC1 142015Z 28007KT 42/06 A2994 RMK A01 T04220061  RH  011%=      5-min Rain = 0
KSC1 142016Z 26007KT 42/06 A2994 RMK A01 T04220060  RH  011%=      5-min Rain = 0
KSC1 142017Z 24007KT 42/06 A2994 RMK A01 T04230063  RH  011%=      5-min Rain = 0
KSC1 142018Z 21008KT 42/07 A2994 RMK A01 T04230066  RH  012%=      5-min Rain = 0
KSC1 142019Z 20008KT 42/07 A2994 RMK A01 T04210068  RH  012%=      5-min Rain = 0
KSC1 142020Z 18006KT 42/07 A2994 RMK A01 T04170066  RH  012%=      5-min Rain = 0
KSC1 142021Z 18006KT 41/06 A2994 RMK A01 T04140063  RH  012%=      5-min Rain = 0
KSC1 142022Z 18005KT 41/06 A2993 RMK A01 T04120062  RH  012%=      5-min Rain = 0
KSC1 142023Z 19008KT 41/06 A2993 RMK A01 T04130061  RH  012%=      5-min Rain = 0
KSC1 142024Z 18008KT 41/07 A2993 RMK A01 T04130069  RH  013%=      5-min Rain = 0
KSC1 142025Z 16008KT 41/07 A2993 RMK A01 T04110070  RH  013%=      5-min Rain = 0
KSC1 142026Z 16006KT 41/07 A2993 RMK A01 T04100070  RH  013%=      5-min Rain = 0
KSC1 142027Z 17007KT 41/07 A2993 RMK A01 T04080071  RH  013%=      5-min Rain = 0
KSC1 142028Z 19005KT 41/07 A2993 RMK A01 T04090072  RH  013%=      5-min Rain = 0
KSC1 142029Z 14004KT 41/07 A2993 RMK A01 T04110072  RH  013%=      5-min Rain = 0
KSC1 142030Z 17004KT 41/07 A2993 RMK A01 T04120072  RH  013%=      5-min Rain = 0
KSC1 142031Z 17007KT 42/07 A2993 RMK A01 T04150070  RH  013%=      5-min Rain = 0
KSC1 142032Z 17003KT 42/07 A2993 RMK A01 T04160067  RH  012%=      5-min Rain = 0
KSC1 142033Z 15002KT 41/07 A2993 RMK A01 T04140068  RH  012%=      5-min Rain = 0
KSC1 142034Z 24006KT 42/07 A2993 RMK A01 T04170070  RH  012%=      5-min Rain = 0
KSC1 142035Z 23007KT 42/08 A2993 RMK A01 T04200075  RH  013%=      5-min Rain = 0
KSC1 142036Z 22006KT 42/07 A2993 RMK A01 T04180074  RH  013%=      5-min Rain = 0
KSC1 142037Z 22005KT 42/08 A2992 RMK A01 T04180075  RH  013%=      5-min Rain = 0
KSC1 142038Z 23006KT 42/08 A2992 RMK A01 T04200075  RH  013%=      5-min Rain = 0
KSC1 142039Z 21008KT 42/08 A2992 RMK A01 T04210076  RH  013%=      5-min Rain = 0
KSC1 142040Z 21009KT 42/07 A2992 RMK A01 T04240074  RH  012%=      5-min Rain = 0
KSC1 142041Z 20009KT 42/07 A2992 RMK A01 T04240073  RH  012%=      5-min Rain = 0
KSC1 142042Z 19005KT 42/07 A2992 RMK A01 T04210073  RH  012%=      5-min Rain = 0
KSC1 142043Z 19004KT 42/07 A2992 RMK A01 T04180070  RH  012%=      5-min Rain = 0
KSC1 142044Z 23002KT 41/07 A2992 RMK A01 T04130068  RH  013%=      5-min Rain = 0
KSC1 142045Z 22001KT 41/07 A2992 RMK A01 T04110068  RH  013%=      5-min Rain = 0
KSC1 142046Z 17002KT 41/07 A2992 RMK A01 T04130070  RH  013%=      5-min Rain = 0
KSC1 142047Z 15005KT 42/07 A2992 RMK A01 T04160070  RH  013%=      5-min Rain = 0
KSC1 142048Z 18008KT 42/07 A2992 RMK A01 T04180070  RH  012%=      5-min Rain = 0
KSC1 142049Z 16007KT 42/07 A2992 RMK A01 T04190068  RH  012%=      5-min Rain = 0
KSC1 142050Z 17008KT 42/07 A2992 RMK A01 T04190068  RH  012%=      5-min Rain = 0
KSC1 142051Z 18008KT 42/07 A2992 RMK A01 T04210068  RH  012%=      5-min Rain = 0
KSC1 142052Z 19007KT 42/07 A2992 RMK A01 T04190066  RH  012%=      5-min Rain = 0
KSC1 142053Z 22008KT 42/07 A2992 RMK A01 T04180068  RH  012%=      5-min Rain = 0
KSC1 142054Z 22007KT 42/07 A2992 RMK A01 T04170069  RH  012%=      5-min Rain = 0
KSC1 142055Z 21006KT 42/07 A2992 RMK A01 T04170067  RH  012%=      5-min Rain = 0
KSC1 142056Z 22006KT 41/07 A2992 RMK A01 T04140067  RH  012%=      5-min Rain = 0
KSC1 142057Z 21003KT 42/07 A2992 RMK A01 T04160069  RH  012%=      5-min Rain = 0
KSC1 142058Z 26003KT 42/07 A2991 RMK A01 T04190070  RH  012%=      5-min Rain = 0
KSC1 142059Z 26002KT 42/07 A2991 RMK A01 T04190070  RH  012%=      5-min Rain = 0
KSC1 142100Z 21003KT 42/07 A2991 RMK A01 T04200069  RH  012%=      5-min Rain = 0
KSC1 142101Z 21007KT 42/07 A2991 RMK A01 T04190068  RH  012%=      5-min Rain = 0
KSC1 142102Z 19009KT 42/07 A2991 RMK A01 T04190070  RH  012%=      5-min Rain = 0
KSC1 142103Z 19012KT 42/07 A2991 RMK A01 T04200071  RH  012%=      5-min Rain = 0
KSC1 142104Z 18009KT 42/07 A2991 RMK A01 T04170069  RH  012%=      5-min Rain = 0
KSC1 142105Z 17007KT 41/07 A2991 RMK A01 T04130069  RH  013%=      5-min Rain = 0
KSC1 142106Z 18006KT 41/07 A2991 RMK A01 T04120069  RH  013%=      5-min Rain = 0
KSC1 142107Z 22005KT 41/07 A2991 RMK A01 T04130069  RH  013%=      5-min Rain = 0
KSC1 142108Z 22004KT 41/07 A2991 RMK A01 T04130069  RH  013%=      5-min Rain = 0
KSC1 142109Z 20001KT 41/07 A2991 RMK A01 T04130069  RH  013%=      5-min Rain = 0
KSC1 142110Z 15006KT 42/07 A2991 RMK A01 T04150071  RH  013%=      5-min Rain = 0
KSC1 142111Z 17006KT 42/07 A2991 RMK A01 T04170070  RH  012%=      5-min Rain = 0
KSC1 142112Z 16005KT 42/07 A2991 RMK A01 T04180069  RH  012%=      5-min Rain = 0
KSC1 142113Z 16004KT 42/07 A2991 RMK A01 T04200069  RH  012%=      5-min Rain = 0
KSC1 142114Z 18004KT 42/07 A2991 RMK A01 T04210070  RH  012%=      5-min Rain = 0
KSC1 142115Z 16007KT 42/07 A2991 RMK A01 T04220071  RH  012%=      5-min Rain = 0
KSC1 142116Z 18007KT 42/07 A2991 RMK A01 T04220071  RH  012%=      5-min Rain = 0
KSC1 142117Z 20004KT 42/07 A2991 RMK A01 T04210072  RH  012%=      5-min Rain = 0
KSC1 142118Z 21004KT 42/07 A2991 RMK A01 T04240073  RH  012%=      5-min Rain = 0
KSC1 142119Z 20005KT 43/07 A299 RMK A01 T04280072  RH  012%=      5-min Rain = 0
KSC1 142120Z 17007KT 43/07 A299 RMK A01 T04300072  RH  012%=      5-min Rain = 0
KSC1 142121Z 19009KT 43/07 A299 RMK A01 T04270068  RH  012%=      5-min Rain = 0
KSC1 142122Z 19007KT 43/07 A2991 RMK A01 T04260067  RH  012%=      5-min Rain = 0
KSC1 142123Z 17004KT 43/07 A2991 RMK A01 T04250067  RH  012%=      5-min Rain = 0
KSC1 142124Z 18004KT 43/07 A299 RMK A01 T04250066  RH  012%=      5-min Rain = 0
KSC1 142125Z 23004KT 42/07 A299 RMK A01 T04240066  RH  012%=      5-min Rain = 0
KSC1 142126Z 24008KT 42/07 A299 RMK A01 T04230069  RH  012%=      5-min Rain = 0
KSC1 142127Z 22006KT 42/07 A299 RMK A01 T04220068  RH  012%=      5-min Rain = 0
KSC1 142128Z 22002KT 42/07 A299 RMK A01 T04180067  RH  012%=      5-min Rain = 0
KSC1 142129Z 21005KT 42/07 A299 RMK A01 T04170068  RH  012%=      5-min Rain = 0
KSC1 142130Z 20003KT 42/07 A299 RMK A01 T04180067  RH  012%=      5-min Rain = 0
KSC1 142131Z 17007KT 42/07 A299 RMK A01 T04170068  RH  012%=      5-min Rain = 0
KSC1 142132Z 18008G13KT 42/07 A299 RMK A01 T04180069  RH  012%=      5-min Rain = 0
KSC1 142133Z 17011KT 42/07 A299 RMK A01 T04210070  RH  012%=      5-min Rain = 0
KSC1 142134Z 16009KT 42/07 A299 RMK A01 T04220069  RH  012%=      5-min Rain = 0
KSC1 142135Z 15010KT 42/07 A299 RMK A01 T04220068  RH  012%=      5-min Rain = 0
KSC1 142136Z 16006KT 42/07 A299 RMK A01 T04210068  RH  012%=      5-min Rain = 0
KSC1 142137Z 19007KT 42/07 A299 RMK A01 T04220069  RH  012%=      5-min Rain = 0
KSC1 142138Z 21006KT 42/07 A299 RMK A01 T04230066  RH  012%=      5-min Rain = 0
KSC1 142139Z 22006KT 42/07 A299 RMK A01 T04230066  RH  012%=      5-min Rain = 0
KSC1 142140Z 22009KT 43/07 A299 RMK A01 T04250067  RH  012%=      5-min Rain = 0
KSC1 142141Z 22009KT 43/07 A299 RMK A01 T04250066  RH  012%=      5-min Rain = 0
KSC1 142142Z 23008KT 42/07 A299 RMK A01 T04230066  RH  012%=      5-min Rain = 0
KSC1 142143Z 22008KT 42/07 A299 RMK A01 T04230065  RH  012%=      5-min Rain = 0
KSC1 142144Z 25009KT 42/06 A299 RMK A01 T04220063  RH  012%=      5-min Rain = 0
KSC1 142145Z 22007KT 42/06 A299 RMK A01 T04220063  RH  012%=      5-min Rain = 0
KSC1 142146Z 23008KT 42/06 A299 RMK A01 T04240064  RH  012%=      5-min Rain = 0
KSC1 142147Z 23004G9KT 42/06 A299 RMK A01 T04240063  RH  011%=      5-min Rain = 0
KSC1 142148Z 22008KT 42/07 A299 RMK A01 T04240065  RH  012%=      5-min Rain = 0
KSC1 142149Z 23007KT 42/06 A299 RMK A01 T04240064  RH  011%=      5-min Rain = 0
KSC1 142150Z 26006KT 42/06 A299 RMK A01 T04200063  RH  012%=      5-min Rain = 0
KSC1 142151Z 28004KT 42/06 A2989 RMK A01 T04190064  RH  012%=      5-min Rain = 0
KSC1 142152Z 27002KT 42/07 A2989 RMK A01 T04200065  RH  012%=      5-min Rain = 0
KSC1 142153Z 21006KT 42/07 A2989 RMK A01 T04240067  RH  012%=      5-min Rain = 0
KSC1 142154Z 25002KT 42/06 A2989 RMK A01 T04230064  RH  011%=      5-min Rain = 0
KSC1 142155Z 21007KT 42/06 A2989 RMK A01 T04220064  RH  012%=      5-min Rain = 0
KSC1 142156Z 20006KT 42/06 A2989 RMK A01 T04210063  RH  012%=      5-min Rain = 0
KSC1 142157Z 21011G16KT 42/07 A2989 RMK A01 T04200065  RH  012%=      5-min Rain = 0
KSC1 142158Z 20010KT 42/06 A2989 RMK A01 T04220064  RH  012%=      5-min Rain = 0
KSC1 142159Z 23004KT 42/06 A2989 RMK A01 T04220064  RH  012%=      5-min Rain = 0
KSC1 142200Z 24005KT 42/06 A2989 RMK A01 T04230063  RH  011%=      5-min Rain = 0
KSC1 142201Z 26005KT 42/06 A2989 RMK A01 T04230063  RH  011%=      5-min Rain = 0
KSC1 142202Z 28003KT 42/06 A2989 RMK A01 T04220063  RH  011%=      5-min Rain = 0
KSC1 142203Z 29003KT 42/06 A2989 RMK A01 T04220063  RH  012%=      5-min Rain = 0
KSC1 142204Z 28007KT 42/06 A2989 RMK A01 T04220062  RH  011%=      5-min Rain = 0
KSC1 142205Z 27006KT 42/06 A2989 RMK A01 T04220062  RH  011%=      5-min Rain = 0
KSC1 142206Z 26008KT 42/06 A2989 RMK A01 T04220062  RH  011%=      5-min Rain = 0
KSC1 142207Z 25005KT 42/06 A2989 RMK A01 T04220063  RH  012%=      5-min Rain = 0
KSC1 142208Z 23008KT 42/06 A2989 RMK A01 T04220064  RH  012%=      5-min Rain = 0
KSC1 142209Z 23006KT 42/06 A2989 RMK A01 T04220063  RH  012%=      5-min Rain = 0
KSC1 142210Z 29002KT 42/06 A2989 RMK A01 T04200064  RH  012%=      5-min Rain = 0
KSC1 142211Z 31005KT 42/06 A2989 RMK A01 T04230064  RH  011%=      5-min Rain = 0
KSC1 142212Z 24004KT 42/06 A2989 RMK A01 T04240062  RH  011%=      5-min Rain = 0
KSC1 142213Z 19006KT 42/06 A2989 RMK A01 T04230062  RH  011%=      5-min Rain = 0
KSC1 142214Z 21006KT 42/06 A2989 RMK A01 T04240062  RH  011%=      5-min Rain = 0
KSC1 142215Z 25006KT 42/06 A2989 RMK A01 T04240062  RH  011%=      5-min Rain = 0
KSC1 142216Z 24007KT 42/06 A2989 RMK A01 T04230063  RH  012%=      5-min Rain = 0
KSC1 142217Z 20007KT 42/07 A2989 RMK A01 T04230065  RH  012%=      5-min Rain = 0
KSC1 142218Z 20009KT 42/07 A2989 RMK A01 T04230066  RH  012%=      5-min Rain = 0
KSC1 142219Z 19006KT 42/06 A2989 RMK A01 T04230064  RH  012%=      5-min Rain = 0
KSC1 142220Z 19005KT 42/06 A2989 RMK A01 T04210063  RH  012%=      5-min Rain = 0
KSC1 142221Z 18005KT 42/06 A2989 RMK A01 T04200064  RH  012%=      5-min Rain = 0
KSC1 142222Z 17005KT 42/07 A2989 RMK A01 T04200065  RH  012%=      5-min Rain = 0
KSC1 142223Z 15005KT 42/07 A2989 RMK A01 T04180065  RH  012%=      5-min Rain = 0
KSC1 142224Z 18004KT 42/07 A2989 RMK A01 T04190068  RH  012%=      5-min Rain = 0
KSC1 142225Z 22003KT 42/07 A2989 RMK A01 T04230068  RH  012%=      5-min Rain = 0
KSC1 142226Z 17006KT 43/07 A2988 RMK A01 T04250067  RH  012%=      5-min Rain = 0
KSC1 142227Z 22009KT 42/07 A2988 RMK A01 T04240066  RH  012%=      5-min Rain = 0
KSC1 142228Z 23008KT 42/07 A2988 RMK A01 T04240066  RH  012%=      5-min Rain = 0
KSC1 142229Z 22005KT 42/07 A2989 RMK A01 T04240065  RH  012%=      5-min Rain = 0
KSC1 142230Z 18005KT 42/06 A2988 RMK A01 T04220063  RH  012%=      5-min Rain = 0
KSC1 142231Z 17005KT 42/06 A2988 RMK A01 T04200064  RH  012%=      5-min Rain = 0
KSC1 142232Z 17003KT 42/06 A2988 RMK A01 T04190063  RH  012%=      5-min Rain = 0
KSC1 142233Z 25005KT 42/07 A2988 RMK A01 T04190065  RH  012%=      5-min Rain = 0
KSC1 142234Z 27003KT 42/07 A2988 RMK A01 T04220066  RH  012%=      5-min Rain = 0
KSC1 142235Z 27005KT 43/07 A2988 RMK A01 T04250065  RH  012%=      5-min Rain = 0
KSC1 142236Z 27005KT 43/07 A2988 RMK A01 T04250065  RH  011%=      5-min Rain = 0
KSC1 142237Z 27005KT 42/06 A2988 RMK A01 T04240064  RH  011%=      5-min Rain = 0
KSC1 142238Z 24004KT 42/07 A2988 RMK A01 T04240065  RH  012%=      5-min Rain = 0
KSC1 142239Z 24004KT 42/06 A2988 RMK A01 T04220064  RH  012%=      5-min Rain = 0
KSC1 142240Z 26003KT 42/06 A2988 RMK A01 T04200063  RH  012%=      5-min Rain = 0
KSC1 142241Z 24001KT 42/06 A2988 RMK A01 T04200063  RH  012%=      5-min Rain = 0
KSC1 142242Z 25004KT 42/06 A2988 RMK A01 T04210064  RH  012%=      5-min Rain = 0
KSC1 142243Z 24005KT 42/06 A2988 RMK A01 T04210063  RH  012%=      5-min Rain = 0
KSC1 142244Z 23007KT 42/06 A2988 RMK A01 T04210064  RH  012%=      5-min Rain = 0
KSC1 142245Z 23007KT 42/06 A2988 RMK A01 T04210064  RH  012%=      5-min Rain = 0
KSC1 142246Z 23005KT 42/06 A2988 RMK A01 T04220064  RH  012%=      5-min Rain = 0
KSC1 142247Z 23004KT 42/06 A2988 RMK A01 T04220063  RH  011%=      5-min Rain = 0
KSC1 142248Z 22005KT 42/06 A2988 RMK A01 T04220063  RH  012%=      5-min Rain = 0
KSC1 142249Z 20006KT 42/06 A2988 RMK A01 T04230064  RH  012%=      5-min Rain = 0
KSC1 142250Z 17011KT 42/06 A2988 RMK A01 T04230063  RH  011%=      5-min Rain = 0
KSC1 142251Z 17009KT 42/06 A2988 RMK A01 T04200062  RH  012%=      5-min Rain = 0
KSC1 142252Z 17007KT 42/06 A2988 RMK A01 T04180063  RH  012%=      5-min Rain = 0
KSC1 142253Z 16007KT 42/06 A2988 RMK A01 T04190063  RH  012%=      5-min Rain = 0
KSC1 142254Z 15010KT 42/06 A2988 RMK A01 T04200064  RH  012%=      5-min Rain = 0
KSC1 142255Z 15011KT 42/06 A2988 RMK A01 T04200063  RH  012%=      5-min Rain = 0
KSC1 142256Z 14008KT 42/06 A2988 RMK A01 T04200063  RH  012%=      5-min Rain = 0
KSC1 142257Z 14006KT 42/06 A2988 RMK A01 T04190063  RH  012%=      5-min Rain = 0
KSC1 142258Z 15008KT 42/06 A2988 RMK A01 T04200063  RH  012%=      5-min Rain = 0
KSC1 142259Z 16007KT 42/06 A2988 RMK A01 T04210064  RH  012%=      5-min Rain = 0
KSC1 142300Z 19007KT 42/06 A2988 RMK A01 T04210064  RH  012%=      5-min Rain = 0
KSC1 142301Z 20010KT 42/06 A2988 RMK A01 T04210063  RH  012%=      5-min Rain = 0
KSC1 142302Z 20008KT 42/06 A2988 RMK A01 T04210063  RH  012%=      5-min Rain = 0
KSC1 142303Z 20007KT 42/06 A2988 RMK A01 T04220064  RH  012%=      5-min Rain = 0
KSC1 142304Z 22007KT 42/06 A2988 RMK A01 T04230063  RH  011%=      5-min Rain = 0
KSC1 142305Z 22008KT 42/06 A2988 RMK A01 T04230062  RH  011%=      5-min Rain = 0
KSC1 142306Z 21008KT 42/06 A2988 RMK A01 T04220062  RH  011%=      5-min Rain = 0
KSC1 142307Z 22005KT 42/06 A2988 RMK A01 T04210062  RH  011%=      5-min Rain = 0
KSC1 142308Z 22005KT 42/06 A2988 RMK A01 T04210063  RH  012%=      5-min Rain = 0
KSC1 142309Z 18005KT 42/06 A2988 RMK A01 T04220063  RH  012%=      5-min Rain = 0
KSC1 142310Z 16007KT 42/06 A2988 RMK A01 T04220063  RH  012%=      5-min Rain = 0
KSC1 142311Z 17006KT 42/06 A2988 RMK A01 T04230064  RH  012%=      5-min Rain = 0
KSC1 142312Z 16005KT 42/06 A2988 RMK A01 T04220063  RH  012%=      5-min Rain = 0
KSC1 142313Z 21003KT 42/06 A2988 RMK A01 T04220064  RH  012%=      5-min Rain = 0
KSC1 142314Z 22001KT 42/06 A2988 RMK A01 T04220063  RH  012%=      5-min Rain = 0
KSC1 142315Z 26005KT 42/06 A2988 RMK A01 T04230063  RH  011%=      5-min Rain = 0
KSC1 142316Z 27004KT 42/06 A2988 RMK A01 T04230062  RH  011%=      5-min Rain = 0
KSC1 142317Z 25007KT 42/06 A2988 RMK A01 T04230063  RH  011%=      5-min Rain = 0
KSC1 142318Z 24007KT 42/06 A2988 RMK A01 T04220062  RH  011%=      5-min Rain = 0
KSC1 142319Z 25007KT 42/06 A2988 RMK A01 T04200061  RH  011%=      5-min Rain = 0
KSC1 142320Z 23004KT 42/06 A2988 RMK A01 T04190061  RH  012%=      5-min Rain = 0
KSC1 142321Z 24004KT 42/06 A2988 RMK A01 T04190062  RH  012%=      5-min Rain = 0
KSC1 142322Z 21007KT 42/06 A2988 RMK A01 T04200063  RH  012%=      5-min Rain = 0
KSC1 142323Z 20004KT 42/06 A2988 RMK A01 T04200063  RH  012%=      5-min Rain = 0
KSC1 142324Z 18008KT 42/06 A2988 RMK A01 T04200064  RH  012%=      5-min Rain = 0
KSC1 142325Z 18010KT 42/06 A2988 RMK A01 T04210063  RH  012%=      5-min Rain = 0
KSC1 142326Z 19011KT 42/06 A2988 RMK A01 T04210062  RH  011%=      5-min Rain = 0
KSC1 142327Z 20009KT 42/06 A2988 RMK A01 T04180060  RH  012%=      5-min Rain = 0
KSC1 142328Z 22006KT 42/06 A2988 RMK A01 T04170060  RH  012%=      5-min Rain = 0
KSC1 142329Z 22005KT 42/06 A2988 RMK A01 T04160060  RH  012%=      5-min Rain = 0
KSC1 142330Z 23004KT 42/06 A2988 RMK A01 T04150060  RH  012%=      5-min Rain = 0
KSC1 142331Z 22005KT 42/06 A2988 RMK A01 T04150061  RH  012%=      5-min Rain = 0
KSC1 142332Z 22005KT 42/06 A2988 RMK A01 T04170062  RH  012%=      5-min Rain = 0
KSC1 142333Z 18003KT 42/06 A2988 RMK A01 T04170061  RH  012%=      5-min Rain = 0
KSC1 142334Z 18003KT 42/06 A2988 RMK A01 T04160060  RH  012%=      5-min Rain = 0
KSC1 142335Z 22005KT 42/06 A2988 RMK A01 T04160060  RH  012%=      5-min Rain = 0
KSC1 142336Z 23005KT 42/06 A2988 RMK A01 T04160061  RH  012%=      5-min Rain = 0
KSC1 142337Z 23005KT 42/06 A2988 RMK A01 T04170061  RH  012%=      5-min Rain = 0
KSC1 142338Z 21005KT 42/06 A2988 RMK A01 T04170061  RH  012%=      5-min Rain = 0
KSC1 142339Z 21004KT 42/06 A2988 RMK A01 T04170061  RH  012%=      5-min Rain = 0
KSC1 142340Z 23002KT 42/06 A2988 RMK A01 T04170061  RH  012%=      5-min Rain = 0
KSC1 142341Z 26001KT 42/06 A2987 RMK A01 T04160059  RH  012%=      5-min Rain = 0
KSC1 142342Z 26000KT 42/06 A2987 RMK A01 T04160060  RH  012%=      5-min Rain = 0
KSC1 142343Z 26000KT 42/06 A2987 RMK A01 T04150060  RH  012%=      5-min Rain = 0
KSC1 142344Z 21002KT 42/06 A2987 RMK A01 T04160061  RH  012%=      5-min Rain = 0
KSC1 142345Z 24004KT 42/06 A2987 RMK A01 T04180062  RH  012%=      5-min Rain = 0
KSC1 142346Z 21005KT 42/06 A2987 RMK A01 T04200062  RH  012%=      5-min Rain = 0
KSC1 142347Z 19001KT 42/06 A2987 RMK A01 T04190061  RH  011%=      5-min Rain = 0
KSC1 142348Z 19002KT 42/06 A2987 RMK A01 T04190060  RH  011%=      5-min Rain = 0
KSC1 142349Z 21001KT 42/06 A2987 RMK A01 T04190061  RH  012%=      5-min Rain = 0
KSC1 142350Z 12002KT 42/06 A2987 RMK A01 T04190061  RH  012%=      5-min Rain = 0
KSC1 142351Z 09002KT 42/06 A2987 RMK A01 T04190061  RH  012%=      5-min Rain = 0
KSC1 142352Z 16007KT 42/06 A2987 RMK A01 T04170062  RH  012%=      5-min Rain = 0
KSC1 142353Z 20005KT 42/06 A2987 RMK A01 T04160062  RH  012%=      5-min Rain = 0
KSC1 142354Z 17003KT 42/06 A2987 RMK A01 T04160062  RH  012%=      5-min Rain = 0
KSC1 142355Z 19005KT 42/06 A2987 RMK A01 T04170063  RH  012%=      5-min Rain = 0
KSC1 142356Z 19009KT 42/06 A2987 RMK A01 T04180063  RH  012%=      5-min Rain = 0
KSC1 142357Z 19009KT 42/06 A2987 RMK A01 T04170061  RH  012%=      5-min Rain = 0
KSC1 142358Z 20007KT 42/06 A2987 RMK A01 T04160062  RH  012%=      5-min Rain = 0
KSC1 142359Z 18004KT 42/06 A2987 RMK A01 T04150061  RH  012%=      5-min Rain = 0
KSC1 150000Z 19004KT 42/06 A2987 RMK A01 T04150061  RH  012%=      5-min Rain = 0
KSC1 150001Z 20007KT 42/06 A2987 RMK A01 T04150062  RH  012%=      5-min Rain = 0
KSC1 150002Z 18005KT 41/06 A2987 RMK A01 T04140062  RH  012%=      5-min Rain = 0
KSC1 150003Z 19005KT 41/06 A2987 RMK A01 T04130062  RH  012%=      5-min Rain = 0
KSC1 150004Z 20005KT 41/06 A2987 RMK A01 T04130062  RH  012%=      5-min Rain = 0
KSC1 150005Z 22005KT 41/06 A2987 RMK A01 T04130063  RH  012%=      5-min Rain = 0
KSC1 150006Z 23006G11KT 41/06 A2987 RMK A01 T04140062  RH  012%=      5-min Rain = 0
KSC1 150007Z 21009KT 41/06 A2987 RMK A01 T04140063  RH  012%=      5-min Rain = 0
KSC1 150008Z 21005KT 41/06 A2987 RMK A01 T04140064  RH  012%=      5-min Rain = 0
KSC1 150009Z 22008KT 41/06 A2987 RMK A01 T04140064  RH  012%=      5-min Rain = 0
KSC1 150010Z 22006KT 41/06 A2987 RMK A01 T04130064  RH  012%=      5-min Rain = 0
KSC1 150011Z 23006KT 41/06 A2987 RMK A01 T04130064  RH  012%=      5-min Rain = 0
KSC1 150012Z 23005KT 41/06 A2987 RMK A01 T04120064  RH  012%=      5-min Rain = 0
KSC1 150013Z 23007KT 41/06 A2987 RMK A01 T04110064  RH  012%=      5-min Rain = 0
KSC1 150014Z 22006KT 41/06 A2987 RMK A01 T04100063  RH  012%=      5-min Rain = 0
KSC1 150015Z 23006KT 41/06 A2987 RMK A01 T04090063  RH  012%=      5-min Rain = 0
KSC1 150016Z 23008KT 41/06 A2987 RMK A01 T04090063  RH  012%=      5-min Rain = 0
KSC1 150017Z 22008KT 41/06 A2987 RMK A01 T04080062  RH  012%=      5-min Rain = 0
KSC1 150018Z 19009KT 41/06 A2987 RMK A01 T04070063  RH  012%=      5-min Rain = 0
KSC1 150019Z 19008KT 41/06 A2987 RMK A01 T04050062  RH  013%=      5-min Rain = 0
KSC1 150020Z 19006KT 40/06 A2987 RMK A01 T04040063  RH  013%=      5-min Rain = 0
KSC1 150021Z 19006KT 40/06 A2987 RMK A01 T04030062  RH  013%=      5-min Rain = 0
KSC1 150022Z 20004KT 40/06 A2987 RMK A01 T04020062  RH  013%=      5-min Rain = 0
KSC1 150023Z 19005KT 40/06 A2987 RMK A01 T04010062  RH  013%=      5-min Rain = 0
KSC1 150024Z 21005KT 40/06 A2987 RMK A01 T04000062  RH  013%=      5-min Rain = 0
KSC1 150025Z 22004KT 40/06 A2987 RMK A01 T04010062  RH  013%=      5-min Rain = 0
KSC1 150026Z 19003KT 40/06 A2987 RMK A01 T04000062  RH  013%=      5-min Rain = 0
KSC1 150027Z 18005KT 40/06 A2987 RMK A01 T04000062  RH  013%=      5-min Rain = 0
KSC1 150028Z 20003KT 40/06 A2988 RMK A01 T04000063  RH  013%=      5-min Rain = 0
KSC1 150029Z 18003KT 40/06 A2988 RMK A01 T04000062  RH  013%=      5-min Rain = 0
KSC1 150030Z 17004KT 40/06 A2988 RMK A01 T04000063  RH  013%=      5-min Rain = 0
KSC1 150031Z 16005KT 40/06 A2988 RMK A01 T03990063  RH  013%=      5-min Rain = 0
KSC1 150032Z 19006KT 40/06 A2988 RMK A01 T03980064  RH  013%=      5-min Rain = 0
KSC1 150033Z 18005KT 40/06 A2988 RMK A01 T03980063  RH  013%=      5-min Rain = 0
KSC1 150034Z 17004KT 40/06 A2988 RMK A01 T03970063  RH  013%=      5-min Rain = 0
KSC1 150035Z 16005KT 40/06 A2988 RMK A01 T03970063  RH  013%=      5-min Rain = 0
KSC1 150036Z 16005KT 40/06 A2988 RMK A01 T03960063  RH  013%=      5-min Rain = 0
KSC1 150037Z 17004KT 40/06 A2988 RMK A01 T03960063  RH  013%=      5-min Rain = 0
KSC1 150038Z 16004KT 40/06 A2988 RMK A01 T03960063  RH  013%=      5-min Rain = 0
KSC1 150039Z 17004KT 40/06 A2988 RMK A01 T03950063  RH  013%=      5-min Rain = 0
KSC1 150040Z 18004KT 39/06 A2988 RMK A01 T03940063  RH  013%=      5-min Rain = 0
KSC1 150041Z 18005KT 39/06 A2988 RMK A01 T03930064  RH  013%=      5-min Rain = 0
KSC1 150042Z 19005KT 39/06 A2988 RMK A01 T03930064  RH  013%=      5-min Rain = 0
KSC1 150043Z 19004KT 39/06 A2988 RMK A01 T03930064  RH  013%=      5-min Rain = 0
KSC1 150044Z 20005KT 39/06 A2988 RMK A01 T03940064  RH  013%=      5-min Rain = 0
KSC1 150045Z 19005KT 39/06 A2988 RMK A01 T03940064  RH  013%=      5-min Rain = 0
KSC1 150046Z 18005KT 39/06 A2988 RMK A01 T03940064  RH  013%=      5-min Rain = 0
KSC1 150047Z 19005KT 39/06 A2988 RMK A01 T03930064  RH  013%=      5-min Rain = 0
KSC1 150048Z 18004KT 39/06 A2988 RMK A01 T03940064  RH  013%=      5-min Rain = 0
KSC1 150049Z 19004KT 39/06 A2988 RMK A01 T03930064  RH  014%=      5-min Rain = 0
KSC1 150050Z 19004KT 39/06 A2988 RMK A01 T03920064  RH  014%=      5-min Rain = 0
KSC1 150051Z 20004KT 39/07 A2988 RMK A01 T03900065  RH  014%=      5-min Rain = 0
KSC1 150052Z 20003KT 39/07 A2988 RMK A01 T03890065  RH  014%=      5-min Rain = 0
KSC1 150053Z 19003KT 39/07 A2988 RMK A01 T03870065  RH  014%=      5-min Rain = 0
KSC1 150054Z 19003KT 39/07 A2988 RMK A01 T03860065  RH  014%=      5-min Rain = 0
KSC1 150055Z 19004KT 39/07 A2988 RMK A01 T03850066  RH  014%=      5-min Rain = 0
KSC1 150056Z 19004KT 38/07 A2988 RMK A01 T03840066  RH  014%=      5-min Rain = 0
KSC1 150057Z 18003KT 38/07 A2988 RMK A01 T03840066  RH  014%=      5-min Rain = 0
KSC1 150058Z 19004KT 38/07 A2988 RMK A01 T03830067  RH  015%=      5-min Rain = 0
KSC1 150059Z 19004KT 38/07 A2988 RMK A01 T03820067  RH  015%=      5-min Rain = 0
KSC1 150100Z 18005KT 38/07 A2988 RMK A01 T03820067  RH  015%=      5-min Rain = 0
KSC1 150101Z 18005KT 38/07 A2989 RMK A01 T03830068  RH  015%=      5-min Rain = 0
KSC1 150102Z 18004KT 38/07 A2989 RMK A01 T03820068  RH  015%=      5-min Rain = 0
KSC1 150103Z 18005KT 38/07 A2989 RMK A01 T03820069  RH  015%=      5-min Rain = 0
KSC1 150104Z 18005KT 38/07 A2989 RMK A01 T03820069  RH  015%=      5-min Rain = 0
KSC1 150105Z 18006KT 38/07 A2989 RMK A01 T03810070  RH  015%=      5-min Rain = 0
KSC1 150106Z 18005KT 38/07 A2989 RMK A01 T03810070  RH  015%=      5-min Rain = 0
KSC1 150107Z 18005KT 38/07 A2989 RMK A01 T03810070  RH  015%=      5-min Rain = 0
KSC1 150108Z 18005KT 38/07 A2989 RMK A01 T03810070  RH  015%=      5-min Rain = 0
KSC1 150109Z 18005KT 38/07 A2989 RMK A01 T03810069  RH  015%=      5-min Rain = 0
KSC1 150110Z 18005KT 38/07 A2989 RMK A01 T03810069  RH  015%=      5-min Rain = 0
KSC1 150111Z 18006KT 38/07 A2989 RMK A01 T03810069  RH  015%=      5-min Rain = 0
KSC1 150112Z 18005KT 38/07 A2989 RMK A01 T03820070  RH  015%=      5-min Rain = 0
KSC1 150113Z 18006KT 38/07 A2989 RMK A01 T03810070  RH  015%=      5-min Rain = 0
KSC1 150114Z 19006KT 38/07 A2989 RMK A01 T03810070  RH  015%=      5-min Rain = 0
KSC1 150115Z 19005KT 38/07 A2989 RMK A01 T03820070  RH  015%=      5-min Rain = 0
KSC1 150116Z 19005KT 38/07 A2989 RMK A01 T03820071  RH  015%=      5-min Rain = 0
KSC1 150117Z 19005KT 38/07 A2989 RMK A01 T03810071  RH  015%=      5-min Rain = 0
KSC1 150118Z 19005KT 38/07 A2989 RMK A01 T03800071  RH  015%=      5-min Rain = 0
KSC1 150119Z 19005KT 38/07 A2989 RMK A01 T03790071  RH  015%=      5-min Rain = 0
KSC1 150120Z 19005KT 38/07 A2989 RMK A01 T03790071  RH  015%=      5-min Rain = 0
KSC1 150121Z 19006KT 38/07 A2989 RMK A01 T03780072  RH  015%=      5-min Rain = 0
KSC1 150122Z 18006KT 38/07 A2989 RMK A01 T03790072  RH  015%=      5-min Rain = 0
KSC1 150123Z 18007KT 38/07 A2989 RMK A01 T03800072  RH  015%=      5-min Rain = 0
KSC1 150124Z 17007KT 38/07 A2989 RMK A01 T03810072  RH  015%=      5-min Rain = 0
KSC1 150125Z 18007KT 38/07 A2989 RMK A01 T03810072  RH  015%=      5-min Rain = 0
KSC1 150126Z 19006KT 38/07 A2989 RMK A01 T03810072  RH  015%=      5-min Rain = 0
KSC1 150127Z 19005KT 38/07 A2989 RMK A01 T03810072  RH  015%=      5-min Rain = 0
KSC1 150128Z 20006KT 38/07 A2989 RMK A01 T03810072  RH  015%=      5-min Rain = 0
KSC1 150129Z 19006KT 38/07 A2989 RMK A01 T03800072  RH  015%=      5-min Rain = 0
KSC1 150130Z 19005KT 38/07 A2989 RMK A01 T03790072  RH  015%=      5-min Rain = 0
KSC1 150131Z 19006KT 38/07 A2989 RMK A01 T03790072  RH  015%=      5-min Rain = 0
KSC1 150132Z 19005KT 38/07 A2989 RMK A01 T03780072  RH  015%=      5-min Rain = 0
KSC1 150133Z 19006KT 38/07 A2989 RMK A01 T03780072  RH  016%=      5-min Rain = 0
KSC1 150134Z 20006KT 38/07 A2989 RMK A01 T03780073  RH  016%=      5-min Rain = 0
KSC1 150135Z 19005KT 38/07 A2989 RMK A01 T03770072  RH  016%=      5-min Rain = 0
KSC1 150136Z 19005KT 38/07 A2989 RMK A01 T03770072  RH  016%=      5-min Rain = 0
KSC1 150137Z 19006KT 38/07 A2989 RMK A01 T03770073  RH  016%=      5-min Rain = 0
KSC1 150138Z 19005KT 38/07 A2989 RMK A01 T03770072  RH  016%=      5-min Rain = 0
KSC1 150139Z 19006KT 38/07 A2989 RMK A01 T03760072  RH  016%=      5-min Rain = 0
KSC1 150140Z 20006KT 38/07 A2989 RMK A01 T03760072  RH  016%=      5-min Rain = 0
KSC1 150141Z 20006KT 38/07 A2989 RMK A01 T03760073  RH  016%=      5-min Rain = 0
KSC1 150142Z 19006KT 38/07 A2989 RMK A01 T03760073  RH  016%=      5-min Rain = 0
KSC1 150143Z 19006KT 38/07 A2989 RMK A01 T03760073  RH  016%=      5-min Rain = 0
KSC1 150144Z 19006KT 38/07 A2989 RMK A01 T03760072  RH  016%=      5-min Rain = 0
KSC1 150145Z 19006KT 38/07 A2989 RMK A01 T03760072  RH  016%=      5-min Rain = 0
KSC1 150146Z 19006KT 38/07 A2989 RMK A01 T03760072  RH  016%=      5-min Rain = 0
KSC1 150147Z 19007KT 38/07 A2989 RMK A01 T03760072  RH  016%=      5-min Rain = 0
KSC1 150148Z 19006KT 38/07 A2989 RMK A01 T03760072  RH  016%=      5-min Rain = 0
KSC1 150149Z 20005KT 38/07 A2989 RMK A01 T03760072  RH  016%=      5-min Rain = 0
KSC1 150150Z 20006KT 38/07 A2989 RMK A01 T03760072  RH  016%=      5-min Rain = 0
KSC1 150151Z 20006KT 38/07 A2989 RMK A01 T03750072  RH  016%=      5-min Rain = 0
KSC1 150152Z 19006KT 38/07 A2989 RMK A01 T03750072  RH  016%=      5-min Rain = 0
KSC1 150153Z 20005KT 37/07 A2989 RMK A01 T03740072  RH  016%=      5-min Rain = 0
KSC1 150154Z 20006KT 37/07 A2989 RMK A01 T03740071  RH  016%=      5-min Rain = 0
KSC1 150155Z 20006KT 37/07 A2989 RMK A01 T03740071  RH  016%=      5-min Rain = 0
KSC1 150156Z 20006KT 37/07 A2989 RMK A01 T03740071  RH  016%=      5-min Rain = 0
KSC1 150157Z 19006KT 37/07 A2989 RMK A01 T03740071  RH  016%=      5-min Rain = 0
KSC1 150158Z 20005KT 37/07 A2989 RMK A01 T03740071  RH  016%=      5-min Rain = 0
KSC1 150159Z 20007KT 37/07 A2989 RMK A01 T03740071  RH  016%=      5-min Rain = 0
KSC1 150200Z 20005KT 37/07 A2989 RMK A01 T03730071  RH  016%=      5-min Rain = 0
KSC1 150201Z 20005KT 37/07 A2989 RMK A01 T03730071  RH  016%=      5-min Rain = 0
KSC1 150202Z 20006KT 37/07 A299 RMK A01 T03720071  RH  016%=      5-min Rain = 0
KSC1 150203Z 20005KT 37/07 A299 RMK A01 T03710071  RH  016%=      5-min Rain = 0
KSC1 150204Z 19005KT 37/07 A299 RMK A01 T03700071  RH  016%=      5-min Rain = 0
KSC1 150205Z 19007KT 37/07 A299 RMK A01 T03690071  RH  016%=      5-min Rain = 0
KSC1 150206Z 19005KT 37/07 A299 RMK A01 T03690071  RH  016%=      5-min Rain = 0
KSC1 150207Z 19007KT 37/07 A299 RMK A01 T03700072  RH  016%=      5-min Rain = 0
KSC1 150208Z 19007KT 37/07 A299 RMK A01 T03700071  RH  016%=      5-min Rain = 0
KSC1 150209Z 19007KT 37/07 A299 RMK A01 T03700071  RH  016%=      5-min Rain = 0
KSC1 150210Z 19008KT 37/07 A299 RMK A01 T03700071  RH  016%=      5-min Rain = 0
KSC1 150211Z 20006KT 37/07 A299 RMK A01 T03710071  RH  016%=      5-min Rain = 0
KSC1 150212Z 19007KT 37/07 A299 RMK A01 T03720071  RH  016%=      5-min Rain = 0
KSC1 150213Z 19007KT 37/07 A299 RMK A01 T03710071  RH  016%=      5-min Rain = 0
KSC1 150214Z 19007KT 37/07 A299 RMK A01 T03710071  RH  016%=      5-min Rain = 0
KSC1 150215Z 19005KT 37/07 A299 RMK A01 T03710071  RH  016%=      5-min Rain = 0
KSC1 150216Z 19005KT 37/07 A299 RMK A01 T03710071  RH  016%=      5-min Rain = 0
KSC1 150217Z 19006KT 37/07 A299 RMK A01 T03710071  RH  016%=      5-min Rain = 0
KSC1 150218Z 19006KT 37/07 A299 RMK A01 T03700070  RH  016%=      5-min Rain = 0
KSC1 150219Z 19007KT 37/07 A299 RMK A01 T03710071  RH  016%=      5-min Rain = 0
KSC1 150220Z 19007KT 37/07 A299 RMK A01 T03710071  RH  016%=      5-min Rain = 0
KSC1 150221Z 19006KT 37/07 A299 RMK A01 T03710071  RH  016%=      5-min Rain = 0
KSC1 150222Z 19006KT 37/07 A299 RMK A01 T03710071  RH  016%=      5-min Rain = 0
KSC1 150223Z 19006KT 37/07 A299 RMK A01 T03700071  RH  016%=      5-min Rain = 0
KSC1 150224Z 19007KT 37/07 A299 RMK A01 T03700070  RH  016%=      5-min Rain = 0
KSC1 150225Z 18007KT 37/07 A299 RMK A01 T03700070  RH  016%=      5-min Rain = 0
KSC1 150226Z 19007KT 37/07 A299 RMK A01 T03710070  RH  016%=      5-min Rain = 0
KSC1 150227Z 19008KT 37/07 A299 RMK A01 T03710070  RH  016%=      5-min Rain = 0
KSC1 150228Z 18007KT 37/07 A299 RMK A01 T03720070  RH  016%=      5-min Rain = 0
KSC1 150229Z 18007KT 37/07 A299 RMK A01 T03730071  RH  016%=      5-min Rain = 0
KSC1 150230Z 18007KT 37/07 A299 RMK A01 T03730070  RH  016%=      5-min Rain = 0
KSC1 150231Z 18008KT 37/07 A299 RMK A01 T03720070  RH  016%=      5-min Rain = 0
KSC1 150232Z 18007KT 37/07 A2991 RMK A01 T03720071  RH  016%=      5-min Rain = 0
KSC1 150233Z 18008KT 37/07 A2991 RMK A01 T03710070  RH  016%=      5-min Rain = 0
KSC1 150234Z 18007KT 37/07 A2991 RMK A01 T03710070  RH  016%=      5-min Rain = 0
KSC1 150235Z 17006KT 37/07 A2991 RMK A01 T03710071  RH  016%=      5-min Rain = 0
KSC1 150236Z 17006KT 37/07 A2991 RMK A01 T03710070  RH  016%=      5-min Rain = 0
KSC1 150237Z 17007KT 37/07 A2991 RMK A01 T03700071  RH  016%=      5-min Rain = 0
KSC1 150238Z 17007KT 37/07 A2991 RMK A01 T03680071  RH  016%=      5-min Rain = 0
KSC1 150239Z 17006KT 37/07 A2991 RMK A01 T03670070  RH  016%=      5-min Rain = 0
KSC1 150240Z 16006KT 37/07 A2991 RMK A01 T03660071  RH  016%=      5-min Rain = 0
KSC1 150241Z 16005KT 37/07 A2991 RMK A01 T03650071  RH  016%=      5-min Rain = 0
KSC1 150242Z 17007KT 36/07 A2991 RMK A01 T03630070  RH  017%=      5-min Rain = 0
KSC1 150243Z 17007KT 36/07 A2991 RMK A01 T03630071  RH  017%=      5-min Rain = 0
KSC1 150244Z 17006KT 36/07 A2991 RMK A01 T03620071  RH  017%=      5-min Rain = 0
KSC1 150245Z 17006KT 36/07 A2991 RMK A01 T03610071  RH  017%=      5-min Rain = 0
KSC1 150246Z 17005KT 36/07 A2991 RMK A01 T03600071  RH  017%=      5-min Rain = 0
KSC1 150247Z 17006KT 36/07 A2991 RMK A01 T03600071  RH  017%=      5-min Rain = 0
KSC1 150248Z 17006KT 36/07 A2991 RMK A01 T03590071  RH  017%=      5-min Rain = 0
KSC1 150249Z 17005KT 36/07 A2991 RMK A01 T03580071  RH  017%=      5-min Rain = 0
KSC1 150250Z 17006KT 36/07 A2991 RMK A01 T03570072  RH  017%=      5-min Rain = 0
KSC1 150251Z 17006KT 36/07 A2991 RMK A01 T03570072  RH  017%=      5-min Rain = 0
KSC1 150252Z 17007KT 36/07 A2991 RMK A01 T03560072  RH  017%=      5-min Rain = 0
KSC1 150253Z 17005KT 36/07 A2991 RMK A01 T03560072  RH  018%=      5-min Rain = 0
KSC1 150254Z 17006KT 36/07 A2991 RMK A01 T03560073  RH  018%=      5-min Rain = 0
KSC1 150255Z 17006KT 36/07 A2991 RMK A01 T03550073  RH  018%=      5-min Rain = 0
KSC1 150256Z 18005KT 36/07 A2992 RMK A01 T03560073  RH  018%=      5-min Rain = 0
KSC1 150257Z 17008KT 36/07 A2992 RMK A01 T03560074  RH  018%=      5-min Rain = 0
KSC1 150258Z 18007KT 36/08 A2992 RMK A01 T03560075  RH  018%=      5-min Rain = 0
KSC1 150259Z 18007KT 36/08 A2992 RMK A01 T03580076  RH  018%=      5-min Rain = 0
KSC1 150300Z 18007KT 36/08 A2992 RMK A01 T03580076  RH  018%=      5-min Rain = 0
KSC1 150301Z 18009KT 36/08 A2992 RMK A01 T03600077  RH  018%=      5-min Rain = 0
KSC1 150302Z 18010KT 36/08 A2992 RMK A01 T03610077  RH  018%=      5-min Rain = 0
KSC1 150303Z 18009KT 36/08 A2992 RMK A01 T03620077  RH  017%=      5-min Rain = 0
KSC1 150304Z 18009KT 36/08 A2992 RMK A01 T03630077  RH  017%=      5-min Rain = 0
KSC1 150305Z 19007KT 36/08 A2992 RMK A01 T03630077  RH  017%=      5-min Rain = 0
KSC1 150306Z 18007KT 36/08 A2992 RMK A01 T03630077  RH  017%=      5-min Rain = 0
KSC1 150307Z 18007KT 36/08 A2992 RMK A01 T03620077  RH  018%=      5-min Rain = 0
KSC1 150308Z 19009KT 36/08 A2992 RMK A01 T03620078  RH  018%=      5-min Rain = 0
KSC1 150309Z 18008KT 36/08 A2992 RMK A01 T03610077  RH  018%=      5-min Rain = 0
KSC1 150310Z 19006KT 36/08 A2992 RMK A01 T03620078  RH  018%=      5-min Rain = 0
KSC1 150311Z 18007KT 36/08 A2992 RMK A01 T03610078  RH  018%=      5-min Rain = 0
KSC1 150312Z 18009KT 36/08 A2992 RMK A01 T03600078  RH  018%=      5-min Rain = 0
KSC1 150313Z 18008KT 36/08 A2992 RMK A01 T03600079  RH  018%=      5-min Rain = 0
KSC1 150314Z 18008KT 36/08 A2992 RMK A01 T03600079  RH  018%=      5-min Rain = 0
KSC1 150315Z 18008KT 36/08 A2992 RMK A01 T03610080  RH  018%=      5-min Rain = 0
KSC1 150316Z 19009KT 36/08 A2992 RMK A01 T03610080  RH  018%=      5-min Rain = 0
KSC1 150317Z 18009KT 36/08 A2992 RMK A01 T03610080  RH  018%=      5-min Rain = 0
KSC1 150318Z 18006KT 36/08 A2992 RMK A01 T03620081  RH  018%=      5-min Rain = 0
KSC1 150319Z 18008KT 36/08 A2992 RMK A01 T03620081  RH  018%=      5-min Rain = 0
KSC1 150320Z 18007KT 36/08 A2992 RMK A01 T03620081  RH  018%=      5-min Rain = 0
KSC1 150321Z 18006KT 36/08 A2992 RMK A01 T03610081  RH  018%=      5-min Rain = 0
KSC1 150322Z 17006KT 36/08 A2992 RMK A01 T03610082  RH  018%=      5-min Rain = 0
KSC1 150323Z 17006KT 36/08 A2993 RMK A01 T03600081  RH  018%=      5-min Rain = 0
KSC1 150324Z 18004KT 36/08 A2993 RMK A01 T03600082  RH  018%=      5-min Rain = 0
KSC1 150325Z 17002KT 36/08 A2993 RMK A01 T03600081  RH  018%=      5-min Rain = 0
KSC1 150326Z 16000KT 36/08 A2993 RMK A01 T03590081  RH  018%=      5-min Rain = 0
KSC1 150327Z 02003KT 36/08 A2993 RMK A01 T03580081  RH  018%=      5-min Rain = 0
KSC1 150328Z 01007KT 36/08 A2993 RMK A01 T03550081  RH  019%=      5-min Rain = 0
KSC1 150329Z 01006KT 35/08 A2993 RMK A01 T03520080  RH  019%=      5-min Rain = 0
KSC1 150330Z 01006KT 35/08 A2993 RMK A01 T03500079  RH  019%=      5-min Rain = 0
KSC1 150331Z 02005KT 35/08 A2994 RMK A01 T03470078  RH  019%=      5-min Rain = 0
KSC1 150332Z 03006KT 35/08 A2994 RMK A01 T03450079  RH  019%=      5-min Rain = 0
KSC1 150333Z 02006KT 34/08 A2994 RMK A01 T03430079  RH  020%=      5-min Rain = 0
KSC1 150334Z 03007KT 34/08 A2994 RMK A01 T03430079  RH  020%=      5-min Rain = 0
KSC1 150335Z 02006KT 34/08 A2994 RMK A01 T03430079  RH  020%=      5-min Rain = 0
KSC1 150336Z 01007G12KT 34/08 A2994 RMK A01 T03440079  RH  020%=      5-min Rain = 0
KSC1 150337Z 02008KT 35/08 A2994 RMK A01 T03470079  RH  019%=      5-min Rain = 0
KSC1 150338Z 03009G14KT 35/08 A2994 RMK A01 T03520081  RH  019%=      5-min Rain = 0
KSC1 150339Z 05009G14KT 36/08 A2994 RMK A01 T03580082  RH  019%=      5-min Rain = 0
KSC1 150340Z 01009G16KT 36/08 A2994 RMK A01 T03610083  RH  018%=      5-min Rain = 0
KSC1 150341Z 02014G20KT 36/09 A2994 RMK A01 T03610086  RH  019%=      5-min Rain = 0
KSC1 150342Z 01015G21KT 36/09 A2994 RMK A01 T03600088  RH  019%=      5-min Rain = 0
KSC1 150343Z 02014KT 36/09 A2994 RMK A01 T03590089  RH  019%=      5-min Rain = 0
KSC1 150344Z 01013G23KT 36/09 A2994 RMK A01 T03580088  RH  019%=      5-min Rain = 0
KSC1 150345Z 00015G20KT 36/09 A2994 RMK A01 T03580087  RH  019%=      5-min Rain = 0
KSC1 150346Z 02012G18KT 36/09 A2995 RMK A01 T03600088  RH  019%=      5-min Rain = 0
KSC1 150347Z 05009KT 36/09 A2995 RMK A01 T03600086  RH  019%=      5-min Rain = 0
KSC1 150348Z 04006KT 36/09 A2995 RMK A01 T03600085  RH  019%=      5-min Rain = 0
KSC1 150349Z 03007KT 36/09 A2995 RMK A01 T03610086  RH  019%=      5-min Rain = 0
KSC1 150350Z 01010KT 36/09 A2995 RMK A01 T03610087  RH  019%=      5-min Rain = 0
KSC1 150351Z 03006KT 36/09 A2995 RMK A01 T03590087  RH  019%=      5-min Rain = 0
KSC1 150352Z 01006KT 36/09 A2995 RMK A01 T03570087  RH  019%=      5-min Rain = 0
KSC1 150353Z 02008KT 36/09 A2995 RMK A01 T03550088  RH  019%=      5-min Rain = 0
KSC1 150354Z 01007KT 36/09 A2995 RMK A01 T03550089  RH  020%=      5-min Rain = 0
KSC1 150355Z 01003KT 36/09 A2995 RMK A01 T03550088  RH  020%=      5-min Rain = 0
KSC1 150356Z 03003KT 36/09 A2995 RMK A01 T03550089  RH  020%=      5-min Rain = 0
KSC1 150357Z 04007KT 35/09 A2995 RMK A01 T03540088  RH  020%=      5-min Rain = 0
KSC1 150358Z 05009KT 35/09 A2995 RMK A01 T03540088  RH  020%=      5-min Rain = 0
KSC1 150359Z 06009KT 35/09 A2996 RMK A01 T03540089  RH  020%=      5-min Rain = 0
KSC1 150400Z 05008KT 35/09 A2996 RMK A01 T03540089  RH  020%=      5-min Rain = 0
KSC1 150401Z 05006KT 35/09 A2996 RMK A01 T03530089  RH  020%=      5-min Rain = 0
KSC1 150402Z 06006KT 35/09 A2996 RMK A01 T03510089  RH  020%=      5-min Rain = 0
KSC1 150403Z 06007KT 35/09 A2996 RMK A01 T03500089  RH  020%=      5-min Rain = 0
KSC1 150404Z 04007KT 35/09 A2996 RMK A01 T03490089  RH  020%=      5-min Rain = 0
KSC1 150405Z 06005KT 35/09 A2996 RMK A01 T03490089  RH  020%=      5-min Rain = 0
KSC1 150406Z 05005KT 35/09 A2996 RMK A01 T03490089  RH  020%=      5-min Rain = 0
KSC1 150407Z 04008KT 35/09 A2996 RMK A01 T03480089  RH  021%=      5-min Rain = 0
KSC1 150408Z 04006KT 35/09 A2996 RMK A01 T03470089  RH  021%=      5-min Rain = 0
KSC1 150409Z 03008KT 35/09 A2996 RMK A01 T03470090  RH  021%=      5-min Rain = 0
KSC1 150410Z 04007KT 35/09 A2996 RMK A01 T03470090  RH  021%=      5-min Rain = 0
KSC1 150411Z 05008KT 35/09 A2996 RMK A01 T03460090  RH  021%=      5-min Rain = 0
KSC1 150412Z 05008KT 35/09 A2996 RMK A01 T03460091  RH  021%=      5-min Rain = 0
KSC1 150413Z 05009KT 35/09 A2996 RMK A01 T03460091  RH  021%=      5-min Rain = 0
KSC1 150414Z 05008KT 35/09 A2996 RMK A01 T03470092  RH  021%=      5-min Rain = 0
KSC1 150415Z 07005KT 35/09 A2996 RMK A01 T03470091  RH  021%=      5-min Rain = 0
KSC1 150416Z 05004KT 35/09 A2996 RMK A01 T03470091  RH  021%=      5-min Rain = 0
KSC1 150417Z 04005KT 35/09 A2996 RMK A01 T03460091  RH  021%=      5-min Rain = 0
KSC1 150418Z 03003KT 35/09 A2996 RMK A01 T03460091  RH  021%=      5-min Rain = 0
KSC1 150419Z 03002KT 35/09 A2996 RMK A01 T03450091  RH  021%=      5-min Rain = 0
KSC1 150420Z 04003KT 34/09 A2996 RMK A01 T03440091  RH  021%=      5-min Rain = 0
KSC1 150421Z 05003KT 34/09 A2996 RMK A01 T03440091  RH  021%=      5-min Rain = 0
KSC1 150422Z 05004KT 34/09 A2996 RMK A01 T03420091  RH  021%=      5-min Rain = 0
KSC1 150423Z 04003KT 34/09 A2996 RMK A01 T03410091  RH  022%=      5-min Rain = 0
KSC1 150424Z 06004KT 34/09 A2996 RMK A01 T03400091  RH  022%=      5-min Rain = 0
KSC1 150425Z 06004KT 34/09 A2996 RMK A01 T03380091  RH  022%=      5-min Rain = 0
KSC1 150426Z 06005KT 34/09 A2996 RMK A01 T03370092  RH  022%=      5-min Rain = 0
KSC1 150427Z 08003KT 34/09 A2996 RMK A01 T03360092  RH  022%=      5-min Rain = 0
KSC1 150428Z 08003KT 34/09 A2996 RMK A01 T03350092  RH  022%=      5-min Rain = 0
KSC1 150429Z 09003KT 33/09 A2996 RMK A01 T03330091  RH  023%=      5-min Rain = 0
KSC1 150430Z 08003KT 33/09 A2996 RMK A01 T03320091  RH  023%=      5-min Rain = 0
KSC1 150431Z 08004KT 33/09 A2996 RMK A01 T03310091  RH  023%=      5-min Rain = 0
KSC1 150432Z 08004KT 33/09 A2996 RMK A01 T03300091  RH  023%=      5-min Rain = 0
KSC1 150433Z 06003KT 33/09 A2996 RMK A01 T03300092  RH  023%=      5-min Rain = 0
KSC1 150434Z 05005KT 33/09 A2996 RMK A01 T03300092  RH  023%=      5-min Rain = 0
KSC1 150435Z 06006KT 33/09 A2996 RMK A01 T03310092  RH  023%=      5-min Rain = 0
KSC1 150436Z 04003KT 33/09 A2996 RMK A01 T03340093  RH  023%=      5-min Rain = 0
KSC1 150437Z 06002KT 34/09 A2996 RMK A01 T03360093  RH  022%=      5-min Rain = 0
KSC1 150438Z 04003KT 34/09 A2996 RMK A01 T03370093  RH  022%=      5-min Rain = 0
KSC1 150439Z 05006KT 34/09 A2996 RMK A01 T03360093  RH  022%=      5-min Rain = 0
KSC1 150440Z 05005KT 34/09 A2996 RMK A01 T03350093  RH  023%=      5-min Rain = 0
KSC1 150441Z 04005KT 34/09 A2996 RMK A01 T03350093  RH  023%=      5-min Rain = 0
KSC1 150442Z 05005KT 34/09 A2996 RMK A01 T03350093  RH  023%=      5-min Rain = 0
KSC1 150443Z 04005KT 34/09 A2996 RMK A01 T03350093  RH  023%=      5-min Rain = 0
KSC1 150444Z 03006KT 34/09 A2996 RMK A01 T03360093  RH  023%=      5-min Rain = 0
KSC1 150445Z 05005KT 34/09 A2996 RMK A01 T03380094  RH  022%=      5-min Rain = 0
KSC1 150446Z 05004KT 34/09 A2996 RMK A01 T03390094  RH  022%=      5-min Rain = 0
KSC1 150447Z 06004KT 34/09 A2996 RMK A01 T03400094  RH  022%=      5-min Rain = 0
KSC1 150448Z 06003KT 34/09 A2996 RMK A01 T03400093  RH  022%=      5-min Rain = 0
KSC1 150449Z 08003KT 34/09 A2996 RMK A01 T03390093  RH  022%=      5-min Rain = 0
KSC1 150450Z 10003KT 34/09 A2996 RMK A01 T03360093  RH  022%=      5-min Rain = 0
KSC1 150451Z 10003KT 33/09 A2996 RMK A01 T03340092  RH  023%=      5-min Rain = 0
KSC1 150452Z 10003KT 33/09 A2996 RMK A01 T03320092  RH  023%=      5-min Rain = 0
KSC1 150453Z 10002KT 33/09 A2996 RMK A01 T03310093  RH  023%=      5-min Rain = 0
KSC1 150454Z 08002KT 33/09 A2996 RMK A01 T03310092  RH  023%=      5-min Rain = 0
KSC1 150455Z 09001KT 33/09 A2996 RMK A01 T03300092  RH  023%=      5-min Rain = 0
KSC1 150456Z 19002KT 33/09 A2996 RMK A01 T03250091  RH  024%=      5-min Rain = 0
KSC1 150457Z 19003KT 32/09 A2996 RMK A01 T03200091  RH  024%=      5-min Rain = 0
KSC1 150458Z 18004KT 32/09 A2996 RMK A01 T03170091  RH  025%=      5-min Rain = 0
KSC1 150459Z 17005KT 31/09 A2996 RMK A01 T03120090  RH  025%=      5-min Rain = 0

Page generated in 0.0797 seconds.